Wetterdaten: Freitag, 21.11.2014
Datum Zeit Temp. Aussen +5cm Feuchte Auss Luftdruck Regen Sonnenschein Regendauer Solar Windben
21.11.2014 00:00 3,7 C 2,2 C 95 % 1025,6 hPa 0,0 l/m 0 min 0 min 0 W/m 6,3 km/h (2 Bft)
21.11.2014 00:02 3,6 C 2,2 C 95 % 1025,5 hPa 0,0 l/m 0 min 0 min 0 W/m 10,5 km/h (2 Bft)
21.11.2014 00:05 3,6 C 2,2 C 95 % 1025,5 hPa 0,0 l/m 0 min 0 min 0 W/m 10,5 km/h (2 Bft)
21.11.2014 00:06 3,6 C 2,2 C 95 % 1025,5 hPa 0,0 l/m 0 min 0 min 0 W/m 10,5 km/h (2 Bft)
21.11.2014 00:08 3,6 C 2,2 C 95 % 1025,5 hPa 0,0 l/m 0 min 0 min 0 W/m 10,5 km/h (2 Bft)
21.11.2014 00:10 3,6 C 2,2 C 95 % 1025,6 hPa 0,0 l/m 0 min 0 min 0 W/m 10,5 km/h (2 Bft)
21.11.2014 00:12 3,6 C 2,2 C 95 % 1025,6 hPa 0,0 l/m 0 min 0 min 0 W/m 6,3 km/h (2 Bft)
21.11.2014 00:14 3,5 C 2,2 C 95 % 1025,5 hPa 0,0 l/m 0 min 0 min 0 W/m 6,3 km/h (2 Bft)
21.11.2014 00:16 3,5 C 2,2 C 95 % 1025,5 hPa 0,0 l/m 0 min 0 min 0 W/m 6,3 km/h (2 Bft)
21.11.2014 00:18 3,5 C 2,2 C 95 % 1025,5 hPa 0,0 l/m 0 min 0 min 0 W/m 6,3 km/h (2 Bft)
21.11.2014 00:20 3,5 C 2,2 C 95 % 1025,5 hPa 0,0 l/m 0 min 0 min 0 W/m 10,5 km/h (2 Bft)
21.11.2014 00:22 3,4 C 2,2 C 95 % 1025,4 hPa 0,0 l/m 0 min 0 min 0 W/m 6,3 km/h (2 Bft)
21.11.2014 00:24 3,4 C 1,7 C 95 % 1025,5 hPa 0,0 l/m 0 min 0 min 0 W/m 10,5 km/h (2 Bft)
21.11.2014 00:26 3,4 C 1,7 C 95 % 1025,4 hPa 0,0 l/m 0 min 0 min 0 W/m 6,3 km/h (2 Bft)
21.11.2014 00:28 3,4 C 1,7 C 95 % 1025,4 hPa 0,0 l/m 0 min 0 min 0 W/m 6,3 km/h (2 Bft)
21.11.2014 00:30 3,4 C 1,7 C 95 % 1025,4 hPa 0,0 l/m 0 min 0 min 0 W/m 4,2 km/h (1 Bft)
21.11.2014 00:32 3,4 C 1,7 C 95 % 1025,5 hPa 0,0 l/m 0 min 0 min 0 W/m 6,3 km/h (2 Bft)
21.11.2014 00:34 3,4 C 1,7 C 95 % 1025,5 hPa 0,0 l/m 0 min 0 min 0 W/m 6,3 km/h (2 Bft)
21.11.2014 00:36 3,3 C 1,7 C 95 % 1025,5 hPa 0,0 l/m 0 min 0 min 0 W/m 4,2 km/h (1 Bft)
21.11.2014 00:38 3,3 C 1,7 C 95 % 1025,5 hPa 0,0 l/m 0 min 0 min 0 W/m 10,5 km/h (2 Bft)
21.11.2014 00:40 3,3 C 1,7 C 95 % 1025,4 hPa 0,0 l/m 0 min 0 min 0 W/m 12,6 km/h (3 Bft)
21.11.2014 00:42 3,3 C 1,7 C 95 % 1025,5 hPa 0,0 l/m 0 min 0 min 0 W/m 4,2 km/h (1 Bft)
21.11.2014 00:44 3,2 C 1,7 C 95 % 1025,5 hPa 0,0 l/m 0 min 0 min 0 W/m 4,2 km/h (1 Bft)
21.11.2014 00:46 3,2 C 1,1 C 95 % 1025,4 hPa 0,0 l/m 0 min 0 min 0 W/m 6,3 km/h (2 Bft)
21.11.2014 00:48 3,2 C 1,1 C 95 % 1025,4 hPa 0,0 l/m 0 min 0 min 0 W/m 6,3 km/h (2 Bft)
21.11.2014 00:50 3,2 C 1,1 C 95 % 1025,3 hPa 0,0 l/m 0 min 0 min 0 W/m 10,5 km/h (2 Bft)
21.11.2014 00:52 3,2 C 1,1 C 95 % 1025,3 hPa 0,0 l/m 0 min 0 min 0 W/m 8,4 km/h (2 Bft)
21.11.2014 00:54 3,1 C 1,1 C 95 % 1025,3 hPa 0,0 l/m 0 min 0 min 0 W/m 10,5 km/h (2 Bft)
21.11.2014 00:56 3,1 C 1,7 C 95 % 1025,3 hPa 0,0 l/m 0 min 0 min 0 W/m 6,3 km/h (2 Bft)
21.11.2014 00:58 3,1 C 1,7 C 95 % 1025,2 hPa 0,0 l/m 0 min 0 min 0 W/m 10,5 km/h (2 Bft)
21.11.2014 01:00 3,1 C 1,7 C 95 % 1025,2 hPa 0,0 l/m 0 min 0 min 0 W/m 10,5 km/h (2 Bft)
21.11.2014 01:02 3,0 C 1,7 C 95 % 1025,2 hPa 0,0 l/m 0 min 0 min 0 W/m 10,5 km/h (2 Bft)
21.11.2014 01:04 3,1 C 1,7 C 95 % 1025,2 hPa 0,0 l/m 0 min 0 min 0 W/m 10,5 km/h (2 Bft)
21.11.2014 01:06 3,0 C 1,7 C 95 % 1025,2 hPa 0,0 l/m 0 min 0 min 0 W/m 10,5 km/h (2 Bft)
21.11.2014 01:08 3,0 C 1,7 C 95 % 1025,2 hPa 0,0 l/m 0 min 0 min 0 W/m 10,5 km/h (2 Bft)
21.11.2014 01:10 3,0 C 1,7 C 95 % 1025,2 hPa 0,0 l/m 0 min 0 min 0 W/m 10,5 km/h (2 Bft)
21.11.2014 01:12 3,0 C 1,7 C 95 % 1025,2 hPa 0,0 l/m 0 min 0 min 0 W/m 8,4 km/h (2 Bft)
21.11.2014 01:14 3,0 C 1,7 C 95 % 1025,3 hPa 0,0 l/m 0 min 0 min 0 W/m 10,5 km/h (2 Bft)
21.11.2014 01:16 3,0 C 1,7 C 95 % 1025,3 hPa 0,0 l/m 0 min 0 min 0 W/m 6,3 km/h (2 Bft)
21.11.2014 01:18 3,0 C 1,7 C 95 % 1025,2 hPa 0,0 l/m 0 min 0 min 0 W/m 6,3 km/h (2 Bft)
21.11.2014 01:20 2,9 C 1,7 C 96 % 1025,2 hPa 0,0 l/m 0 min 0 min 0 W/m 10,5 km/h (2 Bft)
21.11.2014 01:22 2,9 C 1,7 C 96 % 1025,1 hPa 0,0 l/m 0 min 0 min 0 W/m 10,5 km/h (2 Bft)
21.11.2014 01:24 2,9 C 1,7 C 96 % 1025,1 hPa 0,0 l/m 0 min 0 min 0 W/m 6,3 km/h (2 Bft)
21.11.2014 01:26 2,9 C 1,7 C 96 % 1025,1 hPa 0,0 l/m 0 min 0 min 0 W/m 6,3 km/h (2 Bft)
21.11.2014 01:28 2,9 C 1,7 C 96 % 1025,0 hPa 0,0 l/m 0 min 0 min 0 W/m 10,5 km/h (2 Bft)
21.11.2014 01:30 2,9 C 1,7 C 96 % 1025,1 hPa 0,0 l/m 0 min 0 min 0 W/m 6,3 km/h (2 Bft)
21.11.2014 01:32 2,9 C 1,7 C 96 % 1025,1 hPa 0,0 l/m 0 min 0 min 0 W/m 6,3 km/h (2 Bft)
21.11.2014 01:34 2,9 C 1,7 C 96 % 1025,0 hPa 0,0 l/m 0 min 0 min 0 W/m 6,3 km/h (2 Bft)
21.11.2014 01:36 2,9 C 1,7 C 96 % 1025,0 hPa 0,0 l/m 0 min 0 min 0 W/m 10,5 km/h (2 Bft)
21.11.2014 01:38 2,9 C 1,7 C 96 % 1025,0 hPa 0,0 l/m 0 min 0 min 0 W/m 6,3 km/h (2 Bft)
21.11.2014 01:40 2,9 C 1,7 C 96 % 1024,9 hPa 0,0 l/m 0 min 0 min 0 W/m 8,4 km/h (2 Bft)
21.11.2014 01:42 2,9 C 1,7 C 96 % 1024,9 hPa 0,0 l/m 0 min 0 min 0 W/m 12,6 km/h (3 Bft)
21.11.2014 01:44 2,9 C 1,7 C 96 % 1024,9 hPa 0,0 l/m 0 min 0 min 0 W/m 12,6 km/h (3 Bft)
21.11.2014 01:46 2,9 C 1,7 C 96 % 1024,8 hPa 0,0 l/m 0 min 0 min 0 W/m 10,5 km/h (2 Bft)
21.11.2014 01:48 2,9 C 1,7 C 96 % 1024,8 hPa 0,0 l/m 0 min 0 min 0 W/m 10,5 km/h (2 Bft)
21.11.2014 01:50 2,9 C 1,7 C 96 % 1024,9 hPa 0,0 l/m 0 min 0 min 0 W/m 10,5 km/h (2 Bft)
21.11.2014 01:52 2,8 C 1,7 C 96 % 1024,8 hPa 0,0 l/m 0 min 0 min 0 W/m 10,5 km/h (2 Bft)
21.11.2014 01:54 2,8 C 1,7 C 96 % 1024,8 hPa 0,0 l/m 0 min 0 min 0 W/m 10,5 km/h (2 Bft)
21.11.2014 01:56 2,8 C 1,7 C 96 % 1024,9 hPa 0,0 l/m 0 min 0 min 0 W/m 10,5 km/h (2 Bft)
21.11.2014 01:58 2,8 C 1,7 C 96 % 1024,8 hPa 0,0 l/m 0 min 0 min 0 W/m 10,5 km/h (2 Bft)
21.11.2014 02:00 2,8 C 1,7 C 96 % 1024,9 hPa 0,0 l/m 0 min 0 min 0 W/m 8,4 km/h (2 Bft)
21.11.2014 02:02 2,8 C 1,7 C 96 % 1024,8 hPa 0,0 l/m 0 min 0 min 0 W/m 10,5 km/h (2 Bft)
21.11.2014 02:04 2,8 C 1,7 C 96 % 1024,8 hPa 0,0 l/m 0 min 0 min 0 W/m 10,5 km/h (2 Bft)
21.11.2014 02:06 2,8 C 1,7 C 96 % 1024,9 hPa 0,0 l/m 0 min 0 min 0 W/m 12,6 km/h (3 Bft)
21.11.2014 02:08 2,8 C 1,7 C 96 % 1024,8 hPa 0,0 l/m 0 min 0 min 0 W/m 10,5 km/h (2 Bft)
21.11.2014 02:10 2,8 C 1,7 C 96 % 1024,8 hPa 0,0 l/m 0 min 0 min 0 W/m 10,5 km/h (2 Bft)
21.11.2014 02:12 2,8 C 1,7 C 96 % 1024,8 hPa 0,0 l/m 0 min 0 min 0 W/m 12,6 km/h (3 Bft)
21.11.2014 02:14 2,8 C 1,7 C 96 % 1024,8 hPa 0,0 l/m 0 min 0 min 0 W/m 10,5 km/h (2 Bft)
21.11.2014 02:16 2,8 C 1,7 C 96 % 1024,8 hPa 0,0 l/m 0 min 0 min 0 W/m 12,6 km/h (3 Bft)
21.11.2014 02:18 2,8 C 1,7 C 96 % 1024,8 hPa 0,0 l/m 0 min 0 min 0 W/m 12,6 km/h (3 Bft)
21.11.2014 02:20 2,8 C 1,7 C 96 % 1024,8 hPa 0,0 l/m 0 min 0 min 0 W/m 12,6 km/h (3 Bft)
21.11.2014 02:22 2,8 C 1,7 C 96 % 1024,8 hPa 0,0 l/m 0 min 0 min 0 W/m 10,5 km/h (2 Bft)
21.11.2014 02:24 2,8 C 1,7 C 96 % 1024,7 hPa 0,0 l/m 0 min 0 min 0 W/m 14,6 km/h (3 Bft)
21.11.2014 02:26 2,8 C 1,7 C 96 % 1024,7 hPa 0,0 l/m 0 min 0 min 0 W/m 10,5 km/h (2 Bft)
21.11.2014 02:28 2,8 C 1,7 C 96 % 1024,7 hPa 0,0 l/m 0 min 0 min 0 W/m 12,6 km/h (3 Bft)
21.11.2014 02:30 2,8 C 1,7 C 96 % 1024,7 hPa 0,0 l/m 0 min 0 min 0 W/m 10,5 km/h (2 Bft)
21.11.2014 02:32 2,7 C 1,7 C 96 % 1024,8 hPa 0,0 l/m 0 min 0 min 0 W/m 10,5 km/h (2 Bft)
21.11.2014 02:34 2,7 C 1,7 C 96 % 1024,7 hPa 0,0 l/m 0 min 0 min 0 W/m 12,6 km/h (3 Bft)
21.11.2014 02:36 2,7 C 1,7 C 96 % 1024,7 hPa 0,0 l/m 0 min 0 min 0 W/m 12,6 km/h (3 Bft)
21.11.2014 02:38 2,7 C 1,7 C 96 % 1024,8 hPa 0,0 l/m 0 min 0 min 0 W/m 12,6 km/h (3 Bft)
21.11.2014 02:40 2,7 C 1,7 C 96 % 1024,7 hPa 0,2 l/m 0 min 0 min 0 W/m 12,6 km/h (3 Bft)
21.11.2014 02:42 2,7 C 1,7 C 96 % 1024,7 hPa 0,0 l/m 0 min 0 min 0 W/m 12,6 km/h (3 Bft)
21.11.2014 02:44 2,7 C 1,7 C 96 % 1024,7 hPa 0,0 l/m 0 min 0 min 0 W/m 14,6 km/h (3 Bft)
21.11.2014 02:46 2,7 C 1,7 C 96 % 1024,6 hPa 0,0 l/m 0 min 0 min 0 W/m 12,6 km/h (3 Bft)
21.11.2014 02:48 2,7 C 1,7 C 96 % 1024,6 hPa 0,0 l/m 0 min 0 min 0 W/m 8,4 km/h (2 Bft)
21.11.2014 02:50 2,7 C 1,7 C 96 % 1024,6 hPa 0,0 l/m 0 min 0 min 0 W/m 10,5 km/h (2 Bft)
21.11.2014 02:52 2,7 C 1,7 C 96 % 1024,6 hPa 0,0 l/m 0 min 0 min 0 W/m 6,3 km/h (2 Bft)
21.11.2014 02:54 2,7 C 1,7 C 96 % 1024,6 hPa 0,0 l/m 0 min 0 min 0 W/m 6,3 km/h (2 Bft)
21.11.2014 02:56 2,7 C 1,7 C 96 % 1024,6 hPa 0,0 l/m 0 min 0 min 0 W/m 10,5 km/h (2 Bft)
21.11.2014 02:58 2,7 C 1,7 C 96 % 1024,6 hPa 0,0 l/m 0 min 0 min 0 W/m 10,5 km/h (2 Bft)
21.11.2014 03:00 2,7 C 1,7 C 96 % 1024,5 hPa 0,0 l/m 0 min 0 min 0 W/m 6,3 km/h (2 Bft)
21.11.2014 03:02 2,6 C 1,7 C 96 % 1024,6 hPa 0,0 l/m 0 min 0 min 0 W/m 6,3 km/h (2 Bft)
21.11.2014 03:04 2,6 C 1,7 C 96 % 1024,5 hPa 0,0 l/m 0 min 0 min 0 W/m 10,5 km/h (2 Bft)
21.11.2014 03:06 2,6 C 1,7 C 96 % 1024,5 hPa 0,0 l/m 0 min 0 min 0 W/m 10,5 km/h (2 Bft)
21.11.2014 03:08 2,6 C 1,7 C 96 % 1024,5 hPa 0,0 l/m 0 min 0 min 0 W/m 12,6 km/h (3 Bft)
21.11.2014 03:10 2,6 C 1,7 C 96 % 1024,5 hPa 0,0 l/m 0 min 0 min 0 W/m 10,5 km/h (2 Bft)
21.11.2014 03:12 2,6 C 1,1 C 96 % 1024,5 hPa 0,0 l/m 0 min 0 min 0 W/m 8,4 km/h (2 Bft)
21.11.2014 03:14 2,6 C 1,1 C 96 % 1024,5 hPa 0,0 l/m 0 min 0 min 0 W/m 10,5 km/h (2 Bft)
21.11.2014 03:16 2,5 C 1,1 C 96 % 1024,5 hPa 0,0 l/m 0 min 0 min 0 W/m 10,5 km/h (2 Bft)
21.11.2014 03:18 2,5 C 1,1 C 96 % 1024,5 hPa 0,0 l/m 0 min 0 min 0 W/m 12,6 km/h (3 Bft)
21.11.2014 03:20 2,5 C 1,1 C 96 % 1024,5 hPa 0,0 l/m 0 min 0 min 0 W/m 10,5 km/h (2 Bft)
21.11.2014 03:22 2,4 C 1,1 C 96 % 1024,6 hPa 0,0 l/m 0 min 0 min 0 W/m 10,5 km/h (2 Bft)
21.11.2014 03:24 2,4 C 1,1 C 96 % 1024,5 hPa 0,0 l/m 0 min 0 min 0 W/m 10,5 km/h (2 Bft)
21.11.2014 03:26 2,4 C 1,1 C 96 % 1024,6 hPa 0,0 l/m 0 min 0 min 0 W/m 10,5 km/h (2 Bft)
21.11.2014 03:28 2,4 C 1,1 C 96 % 1024,5 hPa 0,0 l/m 0 min 0 min 0 W/m 4,2 km/h (1 Bft)
21.11.2014 03:30 2,4 C 1,1 C 96 % 1024,5 hPa 0,0 l/m 0 min 0 min 0 W/m 10,5 km/h (2 Bft)
21.11.2014 03:32 2,4 C 1,1 C 96 % 1024,5 hPa 0,0 l/m 0 min 0 min 0 W/m 6,3 km/h (2 Bft)
21.11.2014 03:34 2,4 C 1,1 C 96 % 1024,4 hPa 0,0 l/m 0 min 0 min 0 W/m 6,3 km/h (2 Bft)
21.11.2014 03:36 2,4 C 1,1 C 96 % 1024,5 hPa 0,0 l/m 0 min 0 min 0 W/m 8,4 km/h (2 Bft)
21.11.2014 03:38 2,3 C 1,1 C 96 % 1024,4 hPa 0,0 l/m 0 min 0 min 0 W/m 4,2 km/h (1 Bft)
21.11.2014 03:40 2,3 C 1,1 C 96 % 1024,4 hPa 0,0 l/m 0 min 0 min 0 W/m 6,3 km/h (2 Bft)
21.11.2014 03:42 2,3 C 1,1 C 96 % 1024,3 hPa 0,0 l/m 0 min 0 min 0 W/m 10,5 km/h (2 Bft)
21.11.2014 03:44 2,3 C 1,1 C 96 % 1024,3 hPa 0,0 l/m 0 min 0 min 0 W/m 10,5 km/h (2 Bft)
21.11.2014 03:46 2,3 C 0,6 C 96 % 1024,2 hPa 0,0 l/m 0 min 0 min 0 W/m 10,5 km/h (2 Bft)
21.11.2014 03:48 2,3 C 0,6 C 96 % 1024,3 hPa 0,0 l/m 0 min 0 min 0 W/m 6,3 km/h (2 Bft)
21.11.2014 03:50 2,2 C 0,6 C 96 % 1024,2 hPa 0,0 l/m 0 min 0 min 0 W/m 6,3 km/h (2 Bft)
21.11.2014 03:52 2,2 C 0,6 C 96 % 1024,2 hPa 0,0 l/m 0 min 0 min 0 W/m 10,5 km/h (2 Bft)
21.11.2014 03:54 2,2 C 0,6 C 96 % 1024,1 hPa 0,0 l/m 0 min 0 min 0 W/m 8,4 km/h (2 Bft)
21.11.2014 03:56 2,2 C 0,6 C 96 % 1024,1 hPa 0,0 l/m 0 min 0 min 0 W/m 6,3 km/h (2 Bft)
21.11.2014 03:58 2,1 C 0,6 C 96 % 1024,1 hPa 0,0 l/m 0 min 0 min 0 W/m 10,5 km/h (2 Bft)
21.11.2014 04:00 2,1 C 0,6 C 96 % 1024,1 hPa 0,0 l/m 0 min 0 min 0 W/m 10,5 km/h (2 Bft)
21.11.2014 04:02 2,1 C 0,6 C 96 % 1024,1 hPa 0,0 l/m 0 min 0 min 0 W/m 8,4 km/h (2 Bft)
21.11.2014 04:04 2,1 C 0,6 C 96 % 1024,1 hPa 0,0 l/m 0 min 0 min 0 W/m 6,3 km/h (2 Bft)
21.11.2014 04:06 2,1 C 0,6 C 96 % 1024,2 hPa 0,0 l/m 0 min 0 min 0 W/m 10,5 km/h (2 Bft)
21.11.2014 04:08 2,1 C 0,6 C 96 % 1024,2 hPa 0,0 l/m 0 min 0 min 0 W/m 10,5 km/h (2 Bft)
21.11.2014 04:10 2,1 C 0,6 C 96 % 1024,2 hPa 0,0 l/m 0 min 0 min 0 W/m 10,5 km/h (2 Bft)
21.11.2014 04:12 2,0 C 1,1 C 96 % 1024,2 hPa 0,0 l/m 0 min 0 min 0 W/m 10,5 km/h (2 Bft)
21.11.2014 04:14 2,1 C 1,1 C 96 % 1024,1 hPa 0,0 l/m 0 min 0 min 0 W/m 14,6 km/h (3 Bft)
21.11.2014 04:16 2,1 C 1,1 C 96 % 1024,1 hPa 0,0 l/m 0 min 0 min 0 W/m 10,5 km/h (2 Bft)
21.11.2014 04:18 2,0 C 1,1 C 96 % 1024,1 hPa 0,0 l/m 0 min 0 min 0 W/m 12,6 km/h (3 Bft)
21.11.2014 04:20 2,0 C 1,1 C 96 % 1024,0 hPa 0,0 l/m 0 min 0 min 0 W/m 12,6 km/h (3 Bft)
21.11.2014 04:22 2,1 C 1,1 C 96 % 1024,0 hPa 0,0 l/m 0 min 0 min 0 W/m 10,5 km/h (2 Bft)
21.11.2014 04:24 2,0 C 1,1 C 96 % 1024,0 hPa 0,0 l/m 0 min 0 min 0 W/m 10,5 km/h (2 Bft)
21.11.2014 04:26 2,0 C 1,1 C 96 % 1024,0 hPa 0,0 l/m 0 min 0 min 0 W/m 14,6 km/h (3 Bft)
21.11.2014 04:28 2,0 C 1,1 C 96 % 1024,0 hPa 0,0 l/m 0 min 0 min 0 W/m 10,5 km/h (2 Bft)
21.11.2014 04:30 2,0 C 1,1 C 96 % 1024,0 hPa 0,0 l/m 0 min 0 min 0 W/m 10,5 km/h (2 Bft)
21.11.2014 04:32 2,1 C 1,1 C 96 % 1024,0 hPa 0,0 l/m 0 min 0 min 0 W/m 12,6 km/h (3 Bft)
21.11.2014 04:34 2,0 C 1,1 C 96 % 1024,0 hPa 0,0 l/m 0 min 0 min 0 W/m 10,5 km/h (2 Bft)
21.11.2014 04:36 2,0 C 1,1 C 96 % 1024,1 hPa 0,0 l/m 0 min 0 min 0 W/m 10,5 km/h (2 Bft)
21.11.2014 04:38 2,0 C 1,1 C 96 % 1024,0 hPa 0,0 l/m 0 min 0 min 0 W/m 10,5 km/h (2 Bft)
21.11.2014 04:40 2,0 C 1,1 C 97 % 1024,0 hPa 0,0 l/m 0 min 0 min 0 W/m 12,6 km/h (3 Bft)
21.11.2014 04:42 2,0 C 1,1 C 97 % 1024,0 hPa 0,0 l/m 0 min 0 min 0 W/m 10,5 km/h (2 Bft)
21.11.2014 04:44 2,0 C 1,1 C 97 % 1024,0 hPa 0,0 l/m 0 min 0 min 0 W/m 12,6 km/h (3 Bft)
21.11.2014 04:46 2,0 C 1,1 C 97 % 1023,9 hPa 0,0 l/m 0 min 0 min 0 W/m 12,6 km/h (3 Bft)
21.11.2014 04:48 2,0 C 1,1 C 97 % 1024,0 hPa 0,0 l/m 0 min 0 min 0 W/m 12,6 km/h (3 Bft)
21.11.2014 04:50 2,0 C 1,1 C 97 % 1024,0 hPa 0,0 l/m 0 min 0 min 0 W/m 8,4 km/h (2 Bft)
21.11.2014 04:52 2,0 C 1,1 C 97 % 1023,9 hPa 0,0 l/m 0 min 0 min 0 W/m 10,5 km/h (2 Bft)
21.11.2014 04:54 2,0 C 1,1 C 97 % 1024,0 hPa 0,0 l/m 0 min 0 min 0 W/m 10,5 km/h (2 Bft)
21.11.2014 04:56 2,0 C 1,1 C 97 % 1023,9 hPa 0,0 l/m 0 min 0 min 0 W/m 10,5 km/h (2 Bft)
21.11.2014 04:58 2,0 C 1,1 C 97 % 1023,9 hPa 0,0 l/m 0 min 0 min 0 W/m 10,5 km/h (2 Bft)
21.11.2014 05:00 2,0 C 1,1 C 97 % 1023,9 hPa 0,0 l/m 0 min 0 min 0 W/m 10,5 km/h (2 Bft)
21.11.2014 05:02 2,0 C 1,1 C 97 % 1023,9 hPa 0,0 l/m 0 min 0 min 0 W/m 10,5 km/h (2 Bft)
21.11.2014 05:04 2,0 C 1,1 C 97 % 1023,9 hPa 0,0 l/m 0 min 0 min 0 W/m 10,5 km/h (2 Bft)
21.11.2014 05:06 2,0 C 1,1 C 97 % 1023,8 hPa 0,0 l/m 0 min 0 min 0 W/m 14,6 km/h (3 Bft)
21.11.2014 05:08 2,0 C 1,1 C 97 % 1023,8 hPa 0,0 l/m 0 min 0 min 0 W/m 12,6 km/h (3 Bft)
21.11.2014 05:10 2,0 C 1,1 C 97 % 1023,8 hPa 0,0 l/m 0 min 0 min 0 W/m 12,6 km/h (3 Bft)
21.11.2014 05:12 2,0 C 1,1 C 97 % 1023,7 hPa 0,0 l/m 0 min 0 min 0 W/m 14,6 km/h (3 Bft)
21.11.2014 05:14 2,0 C 1,1 C 97 % 1023,7 hPa 0,0 l/m 0 min 0 min 0 W/m 12,6 km/h (3 Bft)
21.11.2014 05:16 2,0 C 1,1 C 97 % 1023,7 hPa 0,0 l/m 0 min 0 min 0 W/m 10,5 km/h (2 Bft)
21.11.2014 05:18 2,0 C 1,1 C 96 % 1023,7 hPa 0,0 l/m 0 min 0 min 0 W/m 12,6 km/h (3 Bft)
21.11.2014 05:20 2,0 C 1,1 C 96 % 1023,7 hPa 0,0 l/m 0 min 0 min 0 W/m 14,6 km/h (3 Bft)
21.11.2014 05:22 2,0 C 1,1 C 96 % 1023,6 hPa 0,0 l/m 0 min 0 min 0 W/m 12,6 km/h (3 Bft)
21.11.2014 05:24 2,0 C 1,1 C 96 % 1023,6 hPa 0,0 l/m 0 min 0 min 0 W/m 10,5 km/h (2 Bft)
21.11.2014 05:26 2,0 C 1,1 C 96 % 1023,6 hPa 0,0 l/m 0 min 0 min 0 W/m 12,6 km/h (3 Bft)
21.11.2014 05:28 1,9 C 1,1 C 96 % 1023,7 hPa 0,0 l/m 0 min 0 min 0 W/m 12,6 km/h (3 Bft)
21.11.2014 05:30 2,0 C 1,1 C 97 % 1023,6 hPa 0,0 l/m 0 min 0 min 0 W/m 10,5 km/h (2 Bft)
21.11.2014 05:32 1,9 C 1,1 C 97 % 1023,6 hPa 0,0 l/m 0 min 0 min 0 W/m 12,6 km/h (3 Bft)
21.11.2014 05:34 1,9 C 1,1 C 97 % 1023,7 hPa 0,0 l/m 0 min 0 min 0 W/m 10,5 km/h (2 Bft)
21.11.2014 05:36 1,9 C 1,1 C 97 % 1023,6 hPa 0,0 l/m 0 min 0 min 0 W/m 10,5 km/h (2 Bft)
21.11.2014 05:38 1,9 C 1,1 C 97 % 1023,5 hPa 0,0 l/m 0 min 0 min 0 W/m 6,3 km/h (2 Bft)
21.11.2014 05:40 1,9 C 1,1 C 97 % 1023,5 hPa 0,0 l/m 0 min 0 min 0 W/m 10,5 km/h (2 Bft)
21.11.2014 05:42 1,9 C 0,6 C 97 % 1023,5 hPa 0,0 l/m 0 min 0 min 0 W/m 10,5 km/h (2 Bft)
21.11.2014 05:44 1,9 C 0,6 C 97 % 1023,5 hPa 0,0 l/m 0 min 0 min 0 W/m 10,5 km/h (2 Bft)
21.11.2014 05:46 1,9 C 0,6 C 97 % 1023,4 hPa 0,0 l/m 0 min 0 min 0 W/m 6,3 km/h (2 Bft)
21.11.2014 05:48 1,9 C 0,6 C 97 % 1023,4 hPa 0,0 l/m 0 min 0 min 0 W/m 6,3 km/h (2 Bft)
21.11.2014 05:50 1,9 C 0,6 C 97 % 1023,4 hPa 0,0 l/m 0 min 0 min 0 W/m 6,3 km/h (2 Bft)
21.11.2014 05:52 1,9 C 0,6 C 97 % 1023,4 hPa 0,0 l/m 0 min 0 min 0 W/m 6,3 km/h (2 Bft)
21.11.2014 05:54 1,9 C 0,6 C 97 % 1023,4 hPa 0,0 l/m 0 min 0 min 0 W/m 10,5 km/h (2 Bft)
21.11.2014 05:56 1,9 C 0,6 C 97 % 1023,3 hPa 0,0 l/m 0 min 0 min 0 W/m 6,3 km/h (2 Bft)
21.11.2014 05:58 1,8 C 0,6 C 97 % 1023,3 hPa 0,0 l/m 0 min 0 min 0 W/m 6,3 km/h (2 Bft)
21.11.2014 06:00 1,8 C 0,6 C 97 % 1023,3 hPa 0,0 l/m 0 min 0 min 0 W/m 10,5 km/h (2 Bft)
21.11.2014 06:02 1,8 C 0,6 C 97 % 1023,3 hPa 0,0 l/m 0 min 0 min 0 W/m 6,3 km/h (2 Bft)
21.11.2014 06:05 1,8 C 0,6 C 97 % 1023,2 hPa 0,0 l/m 0 min 0 min 0 W/m 8,4 km/h (2 Bft)
21.11.2014 06:06 1,8 C 0,6 C 97 % 1023,2 hPa 0,0 l/m 0 min 0 min 0 W/m 10,5 km/h (2 Bft)
21.11.2014 06:08 1,8 C 0,6 C 97 % 1023,3 hPa 0,0 l/m 0 min 0 min 0 W/m 12,6 km/h (3 Bft)
21.11.2014 06:10 1,8 C 0,6 C 97 % 1023,1 hPa 0,0 l/m 0 min 0 min 0 W/m 10,5 km/h (2 Bft)
21.11.2014 06:12 1,7 C 0,6 C 97 % 1023,2 hPa 0,0 l/m 0 min 0 min 0 W/m 10,5 km/h (2 Bft)
21.11.2014 06:14 1,7 C 0,6 C 97 % 1023,1 hPa 0,0 l/m 0 min 0 min 0 W/m 12,6 km/h (3 Bft)
21.11.2014 06:16 1,7 C 0,6 C 96 % 1023,1 hPa 0,0 l/m 0 min 0 min 0 W/m 10,5 km/h (2 Bft)
21.11.2014 06:18 1,7 C 0,6 C 96 % 1023,1 hPa 0,0 l/m 0 min 0 min 0 W/m 10,5 km/h (2 Bft)
21.11.2014 06:20 1,7 C 0,6 C 96 % 1023,1 hPa 0,0 l/m 0 min 0 min 0 W/m 10,5 km/h (2 Bft)
21.11.2014 06:22 1,7 C 0,6 C 96 % 1023,0 hPa 0,0 l/m 0 min 0 min 0 W/m 12,6 km/h (3 Bft)
21.11.2014 06:24 1,7 C 0,6 C 96 % 1023,1 hPa 0,0 l/m 0 min 0 min 0 W/m 10,5 km/h (2 Bft)
21.11.2014 06:26 1,7 C 0,6 C 96 % 1023,1 hPa 0,0 l/m 0 min 0 min 0 W/m 14,6 km/h (3 Bft)
21.11.2014 06:28 1,7 C 0,6 C 96 % 1023,0 hPa 0,0 l/m 0 min 0 min 0 W/m 6,3 km/h (2 Bft)
21.11.2014 06:30 1,7 C 0,6 C 97 % 1023,0 hPa 0,0 l/m 0 min 0 min 0 W/m 10,5 km/h (2 Bft)
21.11.2014 06:32 1,6 C 0,6 C 97 % 1023,0 hPa 0,0 l/m 0 min 0 min 0 W/m 10,5 km/h (2 Bft)
21.11.2014 06:34 1,6 C 0,6 C 97 % 1023,0 hPa 0,0 l/m 0 min 0 min 0 W/m 8,4 km/h (2 Bft)
21.11.2014 06:36 1,6 C 0,6 C 97 % 1023,0 hPa 0,0 l/m 0 min 0 min 0 W/m 12,6 km/h (3 Bft)
21.11.2014 06:38 1,6 C 0,6 C 97 % 1023,0 hPa 0,0 l/m 0 min 0 min 0 W/m 10,5 km/h (2 Bft)
21.11.2014 06:40 1,6 C 0,6 C 97 % 1023,0 hPa 0,0 l/m 0 min 0 min 0 W/m 10,5 km/h (2 Bft)
21.11.2014 06:42 1,6 C 0,6 C 97 % 1023,0 hPa 0,0 l/m 0 min 0 min 0 W/m 10,5 km/h (2 Bft)
21.11.2014 06:44 1,6 C 0,6 C 97 % 1023,0 hPa 0,0 l/m 0 min 0 min 0 W/m 12,6 km/h (3 Bft)
21.11.2014 06:46 1,6 C 0,6 C 97 % 1023,0 hPa 0,0 l/m 0 min 0 min 0 W/m 10,5 km/h (2 Bft)
21.11.2014 06:48 1,6 C 0,6 C 97 % 1023,0 hPa 0,0 l/m 0 min 0 min 0 W/m 16,7 km/h (3 Bft)
21.11.2014 06:50 1,6 C 0,6 C 97 % 1022,9 hPa 0,0 l/m 0 min 0 min 0 W/m 16,7 km/h (3 Bft)
21.11.2014 06:52 1,6 C 0,6 C 97 % 1023,0 hPa 0,0 l/m 0 min 0 min 0 W/m 10,5 km/h (2 Bft)
21.11.2014 06:54 1,6 C 0,6 C 97 % 1022,9 hPa 0,0 l/m 0 min 0 min 0 W/m 8,4 km/h (2 Bft)
21.11.2014 06:56 1,6 C 0,6 C 97 % 1023,0 hPa 0,0 l/m 0 min 0 min 0 W/m 14,6 km/h (3 Bft)
21.11.2014 06:58 1,6 C 0,6 C 97 % 1023,0 hPa 0,0 l/m 0 min 0 min 0 W/m 12,6 km/h (3 Bft)
21.11.2014 07:00 1,6 C 0,6 C 97 % 1023,0 hPa 0,0 l/m 0 min 0 min 0 W/m 12,6 km/h (3 Bft)
21.11.2014 07:02 1,6 C 0,6 C 97 % 1022,9 hPa 0,0 l/m 0 min 0 min 0 W/m 8,4 km/h (2 Bft)
21.11.2014 07:04 1,6 C 0,6 C 97 % 1023,0 hPa 0,0 l/m 0 min 0 min 0 W/m 14,6 km/h (3 Bft)
21.11.2014 07:06 1,6 C 0,6 C 97 % 1023,0 hPa 0,0 l/m 0 min 0 min 0 W/m 10,5 km/h (2 Bft)
21.11.2014 07:08 1,6 C 0,6 C 97 % 1023,0 hPa 0,0 l/m 0 min 0 min 0 W/m 10,5 km/h (2 Bft)
21.11.2014 07:10 1,6 C 0,6 C 97 % 1023,0 hPa 0,0 l/m 0 min 0 min 0 W/m 12,6 km/h (3 Bft)
21.11.2014 07:12 1,6 C 0,6 C 97 % 1023,0 hPa 0,0 l/m 0 min 0 min 0 W/m 12,6 km/h (3 Bft)
21.11.2014 07:14 1,6 C 0,6 C 97 % 1023,0 hPa 0,0 l/m 0 min 0 min 0 W/m 10,5 km/h (2 Bft)
21.11.2014 07:16 1,6 C 0,6 C 97 % 1023,0 hPa 0,0 l/m 0 min 0 min 0 W/m 10,5 km/h (2 Bft)
21.11.2014 07:18 1,6 C 0,6 C 97 % 1022,9 hPa 0,0 l/m 0 min 0 min 0 W/m 8,4 km/h (2 Bft)
21.11.2014 07:20 1,6 C 0,6 C 97 % 1022,9 hPa 0,0 l/m 0 min 0 min 0 W/m 10,5 km/h (2 Bft)
21.11.2014 07:22 1,6 C 0,6 C 97 % 1022,9 hPa 0,0 l/m 0 min 0 min 0 W/m 6,3 km/h (2 Bft)
21.11.2014 07:24 1,6 C 0,6 C 97 % 1023,0 hPa 0,0 l/m 0 min 0 min 0 W/m 6,3 km/h (2 Bft)
21.11.2014 07:26 1,6 C 0,6 C 97 % 1023,0 hPa 0,0 l/m 0 min 0 min 0 W/m 4,2 km/h (1 Bft)
21.11.2014 07:28 1,6 C 0,6 C 97 % 1023,0 hPa 0,0 l/m 0 min 0 min 0 W/m 6,3 km/h (2 Bft)
21.11.2014 07:30 1,6 C 0,6 C 97 % 1023,0 hPa 0,0 l/m 0 min 0 min 0 W/m 10,5 km/h (2 Bft)
21.11.2014 07:32 1,6 C 0,6 C 97 % 1023,0 hPa 0,0 l/m 0 min 0 min 0 W/m 6,3 km/h (2 Bft)
21.11.2014 07:34 1,6 C 0,6 C 97 % 1023,0 hPa 0,0 l/m 0 min 0 min 0 W/m 8,4 km/h (2 Bft)
21.11.2014 07:36 1,6 C 0,6 C 97 % 1023,0 hPa 0,0 l/m 0 min 0 min 0 W/m 10,5 km/h (2 Bft)
21.11.2014 07:38 1,6 C 0,6 C 97 % 1022,9 hPa 0,0 l/m 0 min 0 min 0 W/m 6,3 km/h (2 Bft)
21.11.2014 07:40 1,6 C 0,6 C 97 % 1023,0 hPa 0,0 l/m 0 min 0 min 0 W/m 10,5 km/h (2 Bft)
21.11.2014 07:42 1,6 C 0,6 C 97 % 1023,0 hPa 0,0 l/m 0 min 0 min 0 W/m 10,5 km/h (2 Bft)
21.11.2014 07:44 1,6 C 0,6 C 97 % 1022,9 hPa 0,0 l/m 0 min 0 min 0 W/m 4,2 km/h (1 Bft)
21.11.2014 07:46 1,5 C 0,0 C 97 % 1022,9 hPa 0,0 l/m 0 min 0 min 0 W/m 6,3 km/h (2 Bft)
21.11.2014 07:48 1,5 C 0,0 C 97 % 1022,9 hPa 0,0 l/m 0 min 0 min 0 W/m 14,6 km/h (3 Bft)
21.11.2014 07:50 1,5 C 0,6 C 97 % 1022,9 hPa 0,0 l/m 0 min 0 min 0 W/m 8,4 km/h (2 Bft)
21.11.2014 07:52 1,5 C 0,6 C 97 % 1022,9 hPa 0,0 l/m 0 min 0 min 0 W/m 14,6 km/h (3 Bft)
21.11.2014 07:54 1,5 C 0,6 C 97 % 1022,9 hPa 0,0 l/m 0 min 0 min 0 W/m 12,6 km/h (3 Bft)
21.11.2014 07:56 1,5 C 0,6 C 97 % 1022,8 hPa 0,0 l/m 0 min 0 min 0 W/m 12,6 km/h (3 Bft)
21.11.2014 07:58 1,5 C 0,6 C 97 % 1022,8 hPa 0,0 l/m 0 min 0 min 0 W/m 12,6 km/h (3 Bft)
21.11.2014 08:00 1,5 C 0,6 C 97 % 1022,9 hPa 0,0 l/m 0 min 0 min 0 W/m 14,6 km/h (3 Bft)
21.11.2014 08:02 1,5 C 0,6 C 97 % 1022,9 hPa 0,0 l/m 0 min 0 min 2 W/m 12,6 km/h (3 Bft)
21.11.2014 08:04 1,5 C 0,6 C 97 % 1023,0 hPa 0,0 l/m 0 min 0 min 5 W/m 14,6 km/h (3 Bft)
21.11.2014 08:06 1,5 C 0,6 C 97 % 1022,9 hPa 0,0 l/m 0 min 0 min 5 W/m 14,6 km/h (3 Bft)
21.11.2014 08:08 1,5 C 0,6 C 97 % 1022,9 hPa 0,0 l/m 0 min 0 min 5 W/m 16,7 km/h (3 Bft)
21.11.2014 08:10 1,5 C 0,6 C 97 % 1023,0 hPa 0,0 l/m 0 min 0 min 7 W/m 16,7 km/h (3 Bft)
21.11.2014 08:12 1,5 C 0,6 C 97 % 1023,0 hPa 0,0 l/m 0 min 0 min 7 W/m 10,5 km/h (2 Bft)
21.11.2014 08:14 1,5 C 0,6 C 97 % 1023,0 hPa 0,0 l/m 0 min 0 min 7 W/m 16,7 km/h (3 Bft)
21.11.2014 08:16 1,5 C 0,6 C 97 % 1023,1 hPa 0,0 l/m 0 min 0 min 7 W/m 14,6 km/h (3 Bft)
21.11.2014 08:18 1,5 C 0,6 C 97 % 1023,1 hPa 0,0 l/m 0 min 0 min 9 W/m 12,6 km/h (3 Bft)
21.11.2014 08:20 1,5 C 0,6 C 97 % 1023,2 hPa 0,0 l/m 0 min 0 min 9 W/m 14,6 km/h (3 Bft)
21.11.2014 08:22 1,5 C 0,6 C 97 % 1023,1 hPa 0,0 l/m 0 min 0 min 11 W/m 10,5 km/h (2 Bft)
21.11.2014 08:24 1,5 C 0,6 C 97 % 1023,1 hPa 0,0 l/m 0 min 0 min 11 W/m 12,6 km/h (3 Bft)
21.11.2014 08:26 1,5 C 0,6 C 97 % 1023,0 hPa 0,0 l/m 0 min 0 min 13 W/m 10,5 km/h (2 Bft)
21.11.2014 08:28 1,5 C 0,6 C 97 % 1023,1 hPa 0,0 l/m 0 min 0 min 16 W/m 10,5 km/h (2 Bft)
21.11.2014 08:30 1,5 C 0,6 C 97 % 1023,3 hPa 0,0 l/m 0 min 0 min 18 W/m 12,6 km/h (3 Bft)
21.11.2014 08:32 1,5 C 0,6 C 97 % 1023,2 hPa 0,0 l/m 0 min 0 min 17 W/m 14,6 km/h (3 Bft)
21.11.2014 08:34 1,5 C 0,6 C 97 % 1023,3 hPa 0,0 l/m 0 min 0 min 17 W/m 12,6 km/h (3 Bft)
21.11.2014 08:36 1,5 C 0,6 C 97 % 1023,3 hPa 0,0 l/m 0 min 0 min 20 W/m 12,6 km/h (3 Bft)
21.11.2014 08:38 1,5 C 0,6 C 97 % 1023,3 hPa 0,0 l/m 0 min 0 min 24 W/m 12,6 km/h (3 Bft)
21.11.2014 08:40 1,5 C 0,6 C 97 % 1023,2 hPa 0,0 l/m 0 min 0 min 28 W/m 14,6 km/h (3 Bft)
21.11.2014 08:42 1,6 C 0,6 C 97 % 1023,2 hPa 0,0 l/m 0 min 0 min 27 W/m 10,5 km/h (2 Bft)
21.11.2014 08:44 1,6 C 0,6 C 97 % 1023,2 hPa 0,0 l/m 0 min 0 min 24 W/m 12,6 km/h (3 Bft)
21.11.2014 08:46 1,6 C 0,6 C 97 % 1023,3 hPa 0,0 l/m 0 min 0 min 25 W/m 6,3 km/h (2 Bft)
21.11.2014 08:48 1,6 C 0,6 C 97 % 1023,2 hPa 0,0 l/m 0 min 0 min 24 W/m 6,3 km/h (2 Bft)
21.11.2014 08:50 1,6 C 0,6 C 97 % 1023,2 hPa 0,0 l/m 0 min 0 min 22 W/m 6,3 km/h (2 Bft)
21.11.2014 08:52 1,6 C 0,6 C 97 % 1023,2 hPa 0,0 l/m 0 min 0 min 26 W/m 12,6 km/h (3 Bft)
21.11.2014 08:54 1,6 C 0,6 C 97 % 1023,2 hPa 0,0 l/m 0 min 0 min 28 W/m 10,5 km/h (2 Bft)
21.11.2014 08:56 1,6 C 0,6 C 97 % 1023,1 hPa 0,0 l/m 0 min 0 min 33 W/m 6,3 km/h (2 Bft)
21.11.2014 08:58 1,6 C 0,6 C 97 % 1023,1 hPa 0,0 l/m 0 min 0 min 49 W/m 10,5 km/h (2 Bft)
21.11.2014 09:00 1,6 C 0,6 C 97 % 1023,0 hPa 0,0 l/m 0 min 0 min 57 W/m 12,6 km/h (3 Bft)
21.11.2014 09:02 1,6 C 1,1 C 97 % 1023,0 hPa 0,0 l/m 0 min 0 min 62 W/m 8,4 km/h (2 Bft)
21.11.2014 09:04 1,6 C 1,1 C 97 % 1023,0 hPa 0,0 l/m 2 min 0 min 72 W/m 10,5 km/h (2 Bft)
21.11.2014 09:06 1,6 C 1,1 C 97 % 1023,0 hPa 0,0 l/m 2 min 0 min 70 W/m 12,6 km/h (3 Bft)
21.11.2014 09:08 1,6 C 1,1 C 97 % 1023,0 hPa 0,0 l/m 2 min 0 min 76 W/m 10,5 km/h (2 Bft)
21.11.2014 09:10 1,7 C 1,1 C 97 % 1023,0 hPa 0,0 l/m 2 min 0 min 81 W/m 10,5 km/h (2 Bft)
21.11.2014 09:12 1,7 C 1,1 C 97 % 1022,9 hPa 0,0 l/m 2 min 0 min 95 W/m 8,4 km/h (2 Bft)
21.11.2014 09:14 1,7 C 1,1 C 97 % 1022,9 hPa 0,0 l/m 2 min 0 min 96 W/m 4,2 km/h (1 Bft)
21.11.2014 09:16 1,8 C 1,7 C 97 % 1022,9 hPa 0,0 l/m 2 min 0 min 95 W/m 14,6 km/h (3 Bft)
21.11.2014 09:18 1,8 C 1,7 C 97 % 1022,9 hPa 0,0 l/m 2 min 0 min 105 W/m 16,7 km/h (3 Bft)
21.11.2014 09:20 1,8 C 1,7 C 97 % 1023,0 hPa 0,0 l/m 2 min 0 min 108 W/m 14,6 km/h (3 Bft)
21.11.2014 09:22 1,8 C 1,7 C 97 % 1022,9 hPa 0,0 l/m 2 min 0 min 114 W/m 14,6 km/h (3 Bft)
21.11.2014 09:24 1,9 C 1,7 C 97 % 1022,9 hPa 0,0 l/m 2 min 0 min 116 W/m 10,5 km/h (2 Bft)
21.11.2014 09:26 1,9 C 1,7 C 97 % 1022,9 hPa 0,0 l/m 2 min 0 min 120 W/m 6,3 km/h (2 Bft)
21.11.2014 09:28 1,9 C 1,7 C 97 % 1022,9 hPa 0,0 l/m 2 min 0 min 123 W/m 10,5 km/h (2 Bft)
21.11.2014 09:30 2,0 C 1,7 C 97 % 1022,9 hPa 0,0 l/m 2 min 0 min 127 W/m 10,5 km/h (2 Bft)
21.11.2014 09:32 2,0 C 1,7 C 97 % 1022,9 hPa 0,0 l/m 2 min 0 min 129 W/m 12,6 km/h (3 Bft)
21.11.2014 09:34 2,1 C 1,7 C 97 % 1022,9 hPa 0,0 l/m 2 min 0 min 133 W/m 10,5 km/h (2 Bft)
21.11.2014 09:36 2,1 C 1,7 C 97 % 1022,9 hPa 0,0 l/m 2 min 0 min 137 W/m 14,6 km/h (3 Bft)
21.11.2014 09:38 2,2 C 2,2 C 97 % 1022,9 hPa 0,0 l/m 2 min 0 min 141 W/m 10,5 km/h (2 Bft)
21.11.2014 09:40 2,3 C 2,2 C 97 % 1022,9 hPa 0,0 l/m 2 min 0 min 142 W/m 12,6 km/h (3 Bft)
21.11.2014 09:42 2,3 C 2,2 C 97 % 1022,9 hPa 0,0 l/m 2 min 0 min 143 W/m 12,6 km/h (3 Bft)
21.11.2014 09:44 2,4 C 2,2 C 97 % 1022,9 hPa 0,0 l/m 2 min 0 min 147 W/m 10,5 km/h (2 Bft)
21.11.2014 09:46 2,4 C 2,2 C 97 % 1022,9 hPa 0,0 l/m 2 min 0 min 152 W/m 16,7 km/h (3 Bft)
21.11.2014 09:48 2,5 C 2,2 C 97 % 1022,9 hPa 0,0 l/m 2 min 0 min 158 W/m 14,6 km/h (3 Bft)
21.11.2014 09:50 2,6 C 2,2 C 97 % 1022,9 hPa 0,0 l/m 2 min 0 min 162 W/m 12,6 km/h (3 Bft)
21.11.2014 09:52 2,6 C 2,2 C 97 % 1022,8 hPa 0,0 l/m 2 min 0 min 161 W/m 14,6 km/h (3 Bft)
21.11.2014 09:54 2,7 C 2,8 C 98 % 1022,9 hPa 0,0 l/m 2 min 0 min 154 W/m 10,5 km/h (2 Bft)
21.11.2014 09:56 2,7 C 2,8 C 98 % 1022,8 hPa 0,0 l/m 2 min 0 min 165 W/m 10,5 km/h (2 Bft)
21.11.2014 09:58 2,8 C 2,8 C 98 % 1022,8 hPa 0,0 l/m 2 min 0 min 174 W/m 14,6 km/h (3 Bft)
21.11.2014 10:00 2,9 C 2,8 C 97 % 1022,9 hPa 0,0 l/m 2 min 0 min 177 W/m 14,6 km/h (3 Bft)
21.11.2014 10:02 2,9 C 2,8 C 97 % 1022,9 hPa 0,0 l/m 2 min 0 min 175 W/m 12,6 km/h (3 Bft)
21.11.2014 10:04 3,0 C 2,8 C 97 % 1022,9 hPa 0,0 l/m 2 min 0 min 166 W/m 14,6 km/h (3 Bft)
21.11.2014 10:06 3,1 C 2,8 C 98 % 1022,8 hPa 0,0 l/m 2 min 0 min 186 W/m 14,6 km/h (3 Bft)
21.11.2014 10:08 3,1 C 2,8 C 98 % 1022,9 hPa 0,0 l/m 2 min 0 min 189 W/m 14,6 km/h (3 Bft)
21.11.2014 10:10 3,2 C 2,8 C 98 % 1022,8 hPa 0,0 l/m 2 min 0 min 190 W/m 6,3 km/h (2 Bft)
21.11.2014 10:12 3,2 C 2,8 C 98 % 1022,8 hPa 0,0 l/m 2 min 0 min 190 W/m 12,6 km/h (3 Bft)
21.11.2014 10:14 3,3 C 3,3 C 98 % 1022,8 hPa 0,0 l/m 2 min 0 min 198 W/m 14,6 km/h (3 Bft)
21.11.2014 10:16 3,4 C 3,3 C 98 % 1022,8 hPa 0,0 l/m 2 min 0 min 202 W/m 12,6 km/h (3 Bft)
21.11.2014 10:18 3,5 C 3,3 C 98 % 1022,8 hPa 0,0 l/m 2 min 0 min 207 W/m 16,7 km/h (3 Bft)
21.11.2014 10:20 3,6 C 3,3 C 98 % 1022,8 hPa 0,0 l/m 2 min 0 min 209 W/m 12,6 km/h (3 Bft)
21.11.2014 10:22 3,7 C 3,3 C 98 % 1022,8 hPa 0,0 l/m 2 min 0 min 207 W/m 12,6 km/h (3 Bft)
21.11.2014 10:24 3,8 C 3,3 C 98 % 1022,7 hPa 0,0 l/m 2 min 0 min 213 W/m 14,6 km/h (3 Bft)
21.11.2014 10:26 3,9 C 3,3 C 98 % 1022,7 hPa 0,0 l/m 2 min 0 min 222 W/m 14,6 km/h (3 Bft)
21.11.2014 10:28 3,9 C 3,3 C 98 % 1022,8 hPa 0,0 l/m 2 min 0 min 209 W/m 16,7 km/h (3 Bft)
21.11.2014 10:30 4,1 C 3,9 C 98 % 1022,8 hPa 0,0 l/m 2 min 0 min 226 W/m 14,6 km/h (3 Bft)
21.11.2014 10:32 4,2 C 3,9 C 98 % 1022,8 hPa 0,0 l/m 2 min 0 min 231 W/m 14,6 km/h (3 Bft)
21.11.2014 10:34 4,2 C 3,9 C 98 % 1022,8 hPa 0,0 l/m 2 min 0 min 213 W/m 8,4 km/h (2 Bft)
21.11.2014 10:36 4,3 C 3,9 C 98 % 1022,8 hPa 0,0 l/m 2 min 0 min 192 W/m 8,4 km/h (2 Bft)
21.11.2014 10:38 4,4 C 3,9 C 98 % 1022,8 hPa 0,0 l/m 2 min 0 min 236 W/m 14,6 km/h (3 Bft)
21.11.2014 10:40 4,5 C 3,9 C 98 % 1022,8 hPa 0,0 l/m 2 min 0 min 224 W/m 14,6 km/h (3 Bft)
21.11.2014 10:42 4,6 C 3,9 C 98 % 1022,8 hPa 0,0 l/m 2 min 0 min 180 W/m 14,6 km/h (3 Bft)
21.11.2014 10:44 4,7 C 3,9 C 98 % 1022,7 hPa 0,0 l/m 2 min 0 min 224 W/m 10,5 km/h (2 Bft)
21.11.2014 10:46 4,8 C 3,9 C 98 % 1022,7 hPa 0,0 l/m 2 min 0 min 229 W/m 16,7 km/h (3 Bft)
21.11.2014 10:48 4,9 C 3,9 C 98 % 1022,7 hPa 0,0 l/m 2 min 0 min 217 W/m 12,6 km/h (3 Bft)
21.11.2014 10:50 4,9 C 3,9 C 98 % 1022,7 hPa 0,0 l/m 2 min 0 min 219 W/m 14,6 km/h (3 Bft)
21.11.2014 10:52 5,1 C 3,9 C 98 % 1022,7 hPa 0,0 l/m 2 min 0 min 235 W/m 14,6 km/h (3 Bft)
21.11.2014 10:54 5,2 C 4,4 C 98 % 1022,7 hPa 0,0 l/m 2 min 0 min 221 W/m 10,5 km/h (2 Bft)
21.11.2014 10:56 5,3 C 4,4 C 98 % 1022,7 hPa 0,0 l/m 2 min 0 min 231 W/m 14,6 km/h (3 Bft)
21.11.2014 10:58 5,3 C 4,4 C 98 % 1022,7 hPa 0,0 l/m 2 min 0 min 244 W/m 12,6 km/h (3 Bft)
21.11.2014 11:00 5,4 C 4,4 C 98 % 1022,7 hPa 0,0 l/m 2 min 0 min 237 W/m 12,6 km/h (3 Bft)
21.11.2014 11:02 5,6 C 4,4 C 98 % 1022,6 hPa 0,0 l/m 2 min 0 min 235 W/m 14,6 km/h (3 Bft)
21.11.2014 11:04 5,6 C 4,4 C 98 % 1022,6 hPa 0,0 l/m 2 min 0 min 236 W/m 16,7 km/h (3 Bft)
21.11.2014 11:06 5,7 C 4,4 C 98 % 1022,6 hPa 0,0 l/m 2 min 0 min 238 W/m 14,6 km/h (3 Bft)
21.11.2014 11:08 5,8 C 4,4 C 98 % 1022,6 hPa 0,0 l/m 2 min 0 min 250 W/m 12,6 km/h (3 Bft)
21.11.2014 11:10 5,9 C 4,4 C 98 % 1022,5 hPa 0,0 l/m 2 min 0 min 258 W/m 18,8 km/h (3 Bft)
21.11.2014 11:12 5,9 C 5,0 C 98 % 1022,5 hPa 0,0 l/m 2 min 0 min 264 W/m 16,7 km/h (3 Bft)
21.11.2014 11:14 6,1 C 5,0 C 98 % 1022,5 hPa 0,0 l/m 2 min 0 min 249 W/m 14,6 km/h (3 Bft)
21.11.2014 11:16 6,2 C 5,0 C 98 % 1022,5 hPa 0,0 l/m 2 min 0 min 239 W/m 18,8 km/h (3 Bft)
21.11.2014 11:18 6,2 C 5,0 C 98 % 1022,5 hPa 0,0 l/m 2 min 0 min 222 W/m 18,8 km/h (3 Bft)
21.11.2014 11:20 6,3 C 5,0 C 98 % 1022,5 hPa 0,0 l/m 2 min 0 min 214 W/m 16,7 km/h (3 Bft)
21.11.2014 11:22 6,3 C 5,0 C 97 % 1022,4 hPa 0,0 l/m 2 min 0 min 191 W/m 12,6 km/h (3 Bft)
21.11.2014 11:24 6,4 C 5,0 C 97 % 1022,4 hPa 0,0 l/m 2 min 0 min 207 W/m 12,6 km/h (3 Bft)
21.11.2014 11:26 6,4 C 5,0 C 97 % 1022,4 hPa 0,0 l/m 2 min 0 min 238 W/m 12,6 km/h (3 Bft)
21.11.2014 11:28 6,5 C 5,0 C 97 % 1022,4 hPa 0,0 l/m 2 min 0 min 241 W/m 14,6 km/h (3 Bft)
21.11.2014 11:30 6,6 C 5,6 C 97 % 1022,4 hPa 0,0 l/m 2 min 0 min 236 W/m 16,7 km/h (3 Bft)
21.11.2014 11:32 6,7 C 5,6 C 96 % 1022,4 hPa 0,0 l/m 2 min 0 min 261 W/m 18,8 km/h (3 Bft)
21.11.2014 11:34 6,8 C 5,6 C 96 % 1022,4 hPa 0,0 l/m 2 min 0 min 267 W/m 18,8 km/h (3 Bft)
21.11.2014 11:36 6,8 C 5,6 C 96 % 1022,4 hPa 0,0 l/m 2 min 0 min 263 W/m 16,7 km/h (3 Bft)
21.11.2014 11:38 6,9 C 5,6 C 95 % 1022,4 hPa 0,0 l/m 2 min 0 min 264 W/m 12,6 km/h (3 Bft)
21.11.2014 11:40 7,0 C 5,6 C 95 % 1022,4 hPa 0,0 l/m 2 min 0 min 267 W/m 18,8 km/h (3 Bft)
21.11.2014 11:42 7,1 C 5,6 C 94 % 1022,4 hPa 0,0 l/m 2 min 0 min 271 W/m 10,5 km/h (2 Bft)
21.11.2014 11:44 7,2 C 5,6 C 94 % 1022,3 hPa 0,0 l/m 2 min 0 min 273 W/m 10,5 km/h (2 Bft)
21.11.2014 11:46 7,3 C 6,1 C 94 % 1022,2 hPa 0,0 l/m 2 min 0 min 284 W/m 23,0 km/h (4 Bft)
21.11.2014 11:48 7,4 C 6,1 C 93 % 1022,3 hPa 0,0 l/m 2 min 0 min 279 W/m 20,9 km/h (4 Bft)
21.11.2014 11:50 7,5 C 6,1 C 92 % 1022,3 hPa 0,0 l/m 2 min 0 min 283 W/m 12,6 km/h (3 Bft)
21.11.2014 11:52 7,6 C 6,1 C 92 % 1022,3 hPa 0,0 l/m 2 min 0 min 288 W/m 12,6 km/h (3 Bft)
21.11.2014 11:54 7,7 C 6,1 C 91 % 1022,3 hPa 0,0 l/m 2 min 0 min 298 W/m 18,8 km/h (3 Bft)
21.11.2014 11:56 7,8 C 6,7 C 91 % 1022,3 hPa 0,0 l/m 2 min 0 min 293 W/m 12,6 km/h (3 Bft)
21.11.2014 11:58 7,9 C 6,7 C 90 % 1022,2 hPa 0,0 l/m 2 min 0 min 295 W/m 14,6 km/h (3 Bft)
21.11.2014 12:00 8,0 C 6,7 C 90 % 1022,2 hPa 0,0 l/m 2 min 0 min 306 W/m 16,7 km/h (3 Bft)
21.11.2014 12:02 8,1 C 6,7 C 89 % 1022,1 hPa 0,0 l/m 2 min 0 min 306 W/m 18,8 km/h (3 Bft)
21.11.2014 12:05 8,3 C 6,7 C 88 % 1022,1 hPa 0,0 l/m 2 min 0 min 287 W/m 14,6 km/h (3 Bft)
21.11.2014 12:06 8,3 C 6,7 C 88 % 1022,1 hPa 0,0 l/m 1 min 0 min 282 W/m 20,9 km/h (4 Bft)
21.11.2014 12:08 8,4 C 6,7 C 86 % 1022,0 hPa 0,0 l/m 2 min 0 min 287 W/m 27,2 km/h (4 Bft)
21.11.2014 12:10 8,5 C 6,7 C 85 % 1022,0 hPa 0,0 l/m 2 min 0 min 296 W/m 14,6 km/h (3 Bft)
21.11.2014 12:12 8,6 C 6,7 C 85 % 1022,0 hPa 0,0 l/m 2 min 0 min 306 W/m 18,8 km/h (3 Bft)
21.11.2014 12:14 8,7 C 6,7 C 84 % 1022,0 hPa 0,0 l/m 2 min 0 min 306 W/m 20,9 km/h (4 Bft)
21.11.2014 12:16 8,8 C 6,7 C 84 % 1021,9 hPa 0,0 l/m 2 min 0 min 302 W/m 18,8 km/h (3 Bft)
21.11.2014 12:18 8,9 C 7,2 C 83 % 1021,9 hPa 0,0 l/m 2 min 0 min 302 W/m 20,9 km/h (4 Bft)
21.11.2014 12:20 8,9 C 7,2 C 83 % 1021,9 hPa 0,0 l/m 2 min 0 min 301 W/m 16,7 km/h (3 Bft)
21.11.2014 12:22 9,1 C 7,2 C 82 % 1021,9 hPa 0,0 l/m 2 min 0 min 289 W/m 23,0 km/h (4 Bft)
21.11.2014 12:24 9,1 C 7,2 C 82 % 1021,9 hPa 0,0 l/m 2 min 0 min 261 W/m 20,9 km/h (4 Bft)
21.11.2014 12:26 9,2 C 7,2 C 81 % 1021,9 hPa 0,0 l/m 2 min 0 min 282 W/m 12,6 km/h (3 Bft)
21.11.2014 12:28 9,2 C 7,2 C 81 % 1021,9 hPa 0,0 l/m 2 min 0 min 274 W/m 20,9 km/h (4 Bft)
21.11.2014 12:30 9,3 C 7,2 C 81 % 1021,9 hPa 0,0 l/m 2 min 0 min 278 W/m 23,0 km/h (4 Bft)
21.11.2014 12:32 9,3 C 7,2 C 80 % 1021,9 hPa 0,0 l/m 2 min 0 min 265 W/m 14,6 km/h (3 Bft)
21.11.2014 12:34 9,4 C 7,2 C 80 % 1021,8 hPa 0,0 l/m 2 min 0 min 264 W/m 14,6 km/h (3 Bft)
21.11.2014 12:36 9,4 C 7,2 C 80 % 1021,8 hPa 0,0 l/m 2 min 0 min 275 W/m 10,5 km/h (2 Bft)
21.11.2014 12:38 9,5 C 7,2 C 80 % 1021,8 hPa 0,0 l/m 2 min 0 min 281 W/m 23,0 km/h (4 Bft)
21.11.2014 12:40 9,6 C 7,2 C 80 % 1021,7 hPa 0,0 l/m 2 min 0 min 279 W/m 20,9 km/h (4 Bft)
21.11.2014 12:42 9,6 C 7,2 C 79 % 1021,6 hPa 0,0 l/m 2 min 0 min 270 W/m 18,8 km/h (3 Bft)
21.11.2014 12:44 9,7 C 7,2 C 79 % 1021,6 hPa 0,0 l/m 2 min 0 min 275 W/m 14,6 km/h (3 Bft)
21.11.2014 12:46 9,8 C 7,2 C 79 % 1021,5 hPa 0,0 l/m 2 min 0 min 276 W/m 14,6 km/h (3 Bft)
21.11.2014 12:48 9,8 C 7,2 C 79 % 1021,5 hPa 0,0 l/m 2 min 0 min 284 W/m 10,5 km/h (2 Bft)
21.11.2014 12:50 9,9 C 7,2 C 79 % 1021,5 hPa 0,0 l/m 2 min 0 min 284 W/m 20,9 km/h (4 Bft)
21.11.2014 12:52 9,9 C 7,8 C 79 % 1021,5 hPa 0,0 l/m 2 min 0 min 283 W/m 23,0 km/h (4 Bft)
21.11.2014 12:54 10,0 C 7,8 C 78 % 1021,5 hPa 0,0 l/m 2 min 0 min 283 W/m 16,7 km/h (3 Bft)
21.11.2014 12:56 10,0 C 7,8 C 78 % 1021,4 hPa 0,0 l/m 2 min 0 min 284 W/m 23,0 km/h (4 Bft)
21.11.2014 12:58 10,1 C 7,8 C 78 % 1021,3 hPa 0,0 l/m 2 min 0 min 286 W/m 14,6 km/h (3 Bft)
21.11.2014 13:00 10,1 C 7,8 C 78 % 1021,3 hPa 0,0 l/m 2 min 0 min 287 W/m 20,9 km/h (4 Bft)
21.11.2014 13:02 10,2 C 7,8 C 77 % 1021,3 hPa 0,0 l/m 2 min 0 min 283 W/m 14,6 km/h (3 Bft)
21.11.2014 13:04 10,2 C 7,8 C 77 % 1021,3 hPa 0,0 l/m 2 min 0 min 250 W/m 29,3 km/h (5 Bft)
21.11.2014 13:06 10,2 C 7,8 C 76 % 1021,3 hPa 0,0 l/m 2 min 0 min 233 W/m 20,9 km/h (4 Bft)
21.11.2014 13:08 10,2 C 7,8 C 76 % 1021,4 hPa 0,0 l/m 2 min 0 min 234 W/m 27,2 km/h (4 Bft)
21.11.2014 13:10 10,2 C 7,8 C 75 % 1021,3 hPa 0,0 l/m 2 min 0 min 249 W/m 25,1 km/h (4 Bft)
21.11.2014 13:12 10,2 C 7,8 C 75 % 1021,3 hPa 0,0 l/m 2 min 0 min 261 W/m 16,7 km/h (3 Bft)
21.11.2014 13:14 10,2 C 7,8 C 75 % 1021,3 hPa 0,0 l/m 2 min 0 min 269 W/m 20,9 km/h (4 Bft)
21.11.2014 13:16 10,2 C 7,8 C 75 % 1021,3 hPa 0,0 l/m 2 min 0 min 271 W/m 25,1 km/h (4 Bft)
21.11.2014 13:18 10,2 C 7,8 C 75 % 1021,3 hPa 0,0 l/m 2 min 0 min 269 W/m 18,8 km/h (3 Bft)
21.11.2014 13:20 10,2 C 7,8 C 75 % 1021,2 hPa 0,0 l/m 2 min 0 min 268 W/m 16,7 km/h (3 Bft)
21.11.2014 13:22 10,2 C 7,8 C 76 % 1021,2 hPa 0,0 l/m 2 min 0 min 264 W/m 23,0 km/h (4 Bft)
21.11.2014 13:24 10,2 C 7,8 C 75 % 1021,1 hPa 0,0 l/m 2 min 0 min 263 W/m 23,0 km/h (4 Bft)
21.11.2014 13:26 10,3 C 7,8 C 75 % 1021,1 hPa 0,0 l/m 2 min 0 min 259 W/m 20,9 km/h (4 Bft)
21.11.2014 13:28 10,3 C 7,8 C 75 % 1021,1 hPa 0,0 l/m 2 min 0 min 257 W/m 25,1 km/h (4 Bft)
21.11.2014 13:30 10,3 C 7,8 C 75 % 1021,0 hPa 0,0 l/m 2 min 0 min 254 W/m 18,8 km/h (3 Bft)
21.11.2014 13:32 10,3 C 7,8 C 75 % 1021,0 hPa 0,0 l/m 2 min 0 min 252 W/m 18,8 km/h (3 Bft)
21.11.2014 13:34 10,3 C 7,8 C 75 % 1020,9 hPa 0,0 l/m 2 min 0 min 249 W/m 18,8 km/h (3 Bft)
21.11.2014 13:36 10,3 C 7,8 C 75 % 1020,9 hPa 0,0 l/m 2 min 0 min 245 W/m 23,0 km/h (4 Bft)
21.11.2014 13:38 10,4 C 7,8 C 75 % 1020,9 hPa 0,0 l/m 2 min 0 min 243 W/m 18,8 km/h (3 Bft)
21.11.2014 13:40 10,4 C 7,8 C 75 % 1020,8 hPa 0,0 l/m 2 min 0 min 241 W/m 20,9 km/h (4 Bft)
21.11.2014 13:42 10,4 C 7,8 C 75 % 1020,8 hPa 0,0 l/m 2 min 0 min 238 W/m 20,9 km/h (4 Bft)
21.11.2014 13:44 10,4 C 7,8 C 75 % 1020,8 hPa 0,0 l/m 2 min 0 min 235 W/m 25,1 km/h (4 Bft)
21.11.2014 13:46 10,4 C 7,8 C 74 % 1020,8 hPa 0,0 l/m 2 min 0 min 234 W/m 20,9 km/h (4 Bft)
21.11.2014 13:48 10,4 C 7,8 C 75 % 1020,7 hPa 0,0 l/m 2 min 0 min 230 W/m 23,0 km/h (4 Bft)
21.11.2014 13:50 10,4 C 7,8 C 74 % 1020,7 hPa 0,0 l/m 2 min 0 min 227 W/m 27,2 km/h (4 Bft)
21.11.2014 13:52 10,5 C 7,8 C 74 % 1020,7 hPa 0,0 l/m 2 min 0 min 223 W/m 20,9 km/h (4 Bft)
21.11.2014 13:54 10,4 C 7,8 C 74 % 1020,7 hPa 0,0 l/m 2 min 0 min 221 W/m 25,1 km/h (4 Bft)
21.11.2014 13:56 10,4 C 7,8 C 73 % 1020,7 hPa 0,0 l/m 2 min 0 min 218 W/m 18,8 km/h (3 Bft)
21.11.2014 13:58 10,4 C 7,8 C 73 % 1020,6 hPa 0,0 l/m 2 min 0 min 215 W/m 23,0 km/h (4 Bft)
21.11.2014 14:00 10,4 C 7,8 C 73 % 1020,6 hPa 0,0 l/m 2 min 0 min 212 W/m 16,7 km/h (3 Bft)
21.11.2014 14:02 10,5 C 7,8 C 73 % 1020,7 hPa 0,0 l/m 2 min 0 min 208 W/m 18,8 km/h (3 Bft)
21.11.2014 14:04 10,5 C 7,8 C 73 % 1020,7 hPa 0,0 l/m 2 min 0 min 206 W/m 16,7 km/h (3 Bft)
21.11.2014 14:06 10,5 C 7,8 C 73 % 1020,7 hPa 0,0 l/m 2 min 0 min 201 W/m 20,9 km/h (4 Bft)
21.11.2014 14:08 10,5 C 7,8 C 73 % 1020,7 hPa 0,0 l/m 2 min 0 min 198 W/m 23,0 km/h (4 Bft)
21.11.2014 14:10 10,5 C 7,8 C 73 % 1020,7 hPa 0,0 l/m 2 min 0 min 194 W/m 25,1 km/h (4 Bft)
21.11.2014 14:12 10,4 C 7,8 C 73 % 1020,7 hPa 0,0 l/m 2 min 0 min 191 W/m 27,2 km/h (4 Bft)
21.11.2014 14:14 10,5 C 7,8 C 73 % 1020,7 hPa 0,0 l/m 2 min 0 min 185 W/m 18,8 km/h (3 Bft)
21.11.2014 14:16 10,4 C 7,8 C 73 % 1020,7 hPa 0,0 l/m 2 min 0 min 182 W/m 23,0 km/h (4 Bft)
21.11.2014 14:18 10,4 C 7,8 C 73 % 1020,7 hPa 0,0 l/m 2 min 0 min 181 W/m 23,0 km/h (4 Bft)
21.11.2014 14:20 10,4 C 7,8 C 73 % 1020,7 hPa 0,0 l/m 2 min 0 min 176 W/m 18,8 km/h (3 Bft)
21.11.2014 14:22 10,4 C 7,8 C 72 % 1020,6 hPa 0,0 l/m 2 min 0 min 174 W/m 27,2 km/h (4 Bft)
21.11.2014 14:24 10,4 C 7,8 C 72 % 1020,6 hPa 0,0 l/m 2 min 0 min 170 W/m 18,8 km/h (3 Bft)
21.11.2014 14:26 10,4 C 7,8 C 73 % 1020,5 hPa 0,0 l/m 2 min 0 min 164 W/m 20,9 km/h (4 Bft)
21.11.2014 14:28 10,4 C 7,8 C 73 % 1020,5 hPa 0,0 l/m 2 min 0 min 163 W/m 20,9 km/h (4 Bft)
21.11.2014 14:30 10,4 C 7,8 C 73 % 1020,6 hPa 0,0 l/m 2 min 0 min 162 W/m 29,3 km/h (5 Bft)
21.11.2014 14:32 10,4 C 7,8 C 72 % 1020,5 hPa 0,0 l/m 2 min 0 min 156 W/m 25,1 km/h (4 Bft)
21.11.2014 14:34 10,4 C 7,8 C 72 % 1020,5 hPa 0,0 l/m 2 min 0 min 153 W/m 18,8 km/h (3 Bft)
21.11.2014 14:36 10,4 C 7,8 C 72 % 1020,5 hPa 0,0 l/m 2 min 0 min 149 W/m 23,0 km/h (4 Bft)
21.11.2014 14:38 10,3 C 7,8 C 72 % 1020,5 hPa 0,0 l/m 2 min 0 min 146 W/m 23,0 km/h (4 Bft)
21.11.2014 14:40 10,3 C 7,8 C 72 % 1020,3 hPa 0,0 l/m 2 min 0 min 142 W/m 20,9 km/h (4 Bft)
21.11.2014 14:42 10,3 C 7,8 C 72 % 1020,3 hPa 0,0 l/m 2 min 0 min 140 W/m 18,8 km/h (3 Bft)
21.11.2014 14:44 10,3 C 7,8 C 72 % 1020,3 hPa 0,0 l/m 2 min 0 min 136 W/m 18,8 km/h (3 Bft)
21.11.2014 14:46 10,2 C 7,8 C 72 % 1020,3 hPa 0,0 l/m 2 min 0 min 132 W/m 16,7 km/h (3 Bft)
21.11.2014 14:48 10,2 C 7,8 C 72 % 1020,4 hPa 0,0 l/m 2 min 0 min 129 W/m 29,3 km/h (5 Bft)
21.11.2014 14:50 10,2 C 7,8 C 72 % 1020,4 hPa 0,0 l/m 2 min 0 min 125 W/m 16,7 km/h (3 Bft)
21.11.2014 14:52 10,1 C 7,8 C 73 % 1020,3 hPa 0,0 l/m 2 min 0 min 122 W/m 20,9 km/h (4 Bft)
21.11.2014 14:54 10,1 C 7,8 C 73 % 1020,3 hPa 0,0 l/m 2 min 0 min 118 W/m 23,0 km/h (4 Bft)
21.11.2014 14:56 10,1 C 7,8 C 73 % 1020,3 hPa 0,0 l/m 2 min 0 min 113 W/m 25,1 km/h (4 Bft)
21.11.2014 14:58 10,0 C 7,8 C 73 % 1020,2 hPa 0,0 l/m 2 min 0 min 109 W/m 14,6 km/h (3 Bft)
21.11.2014 15:00 10,0 C 7,8 C 73 % 1020,2 hPa 0,0 l/m 2 min 0 min 105 W/m 16,7 km/h (3 Bft)
21.11.2014 15:02 9,9 C 7,2 C 73 % 1020,2 hPa 0,0 l/m 2 min 0 min 103 W/m 18,8 km/h (3 Bft)
21.11.2014 15:04 9,9 C 7,2 C 73 % 1020,1 hPa 0,0 l/m 0 min 0 min 99 W/m 16,7 km/h (3 Bft)
21.11.2014 15:06 9,9 C 7,2 C 73 % 1020,1 hPa 0,0 l/m 0 min 0 min 96 W/m 27,2 km/h (4 Bft)
21.11.2014 15:08 9,8 C 7,2 C 73 % 1020,1 hPa 0,0 l/m 0 min 0 min 93 W/m 18,8 km/h (3 Bft)
21.11.2014 15:10 9,8 C 7,2 C 73 % 1020,2 hPa 0,0 l/m 0 min 0 min 90 W/m 16,7 km/h (3 Bft)
21.11.2014 15:12 9,7 C 7,2 C 74 % 1020,2 hPa 0,0 l/m 0 min 0 min 86 W/m 16,7 km/h (3 Bft)
21.11.2014 15:14 9,7 C 7,2 C 74 % 1020,2 hPa 0,0 l/m 0 min 0 min 83 W/m 12,6 km/h (3 Bft)
21.11.2014 15:16 9,7 C 7,2 C 74 % 1020,2 hPa 0,0 l/m 0 min 0 min 78 W/m 20,9 km/h (4 Bft)
21.11.2014 15:18 9,6 C 7,2 C 74 % 1020,1 hPa 0,0 l/m 0 min 0 min 75 W/m 18,8 km/h (3 Bft)
21.11.2014 15:20 9,6 C 7,2 C 74 % 1020,1 hPa 0,0 l/m 0 min 0 min 72 W/m 16,7 km/h (3 Bft)
21.11.2014 15:22 9,6 C 7,2 C 74 % 1020,2 hPa 0,0 l/m 0 min 0 min 68 W/m 18,8 km/h (3 Bft)
21.11.2014 15:24 9,6 C 7,2 C 74 % 1020,1 hPa 0,0 l/m 0 min 0 min 65 W/m 18,8 km/h (3 Bft)
21.11.2014 15:26 9,6 C 7,2 C 74 % 1020,2 hPa 0,0 l/m 0 min 0 min 62 W/m 12,6 km/h (3 Bft)
21.11.2014 15:28 9,5 C 7,2 C 74 % 1020,2 hPa 0,0 l/m 0 min 0 min 59 W/m 10,5 km/h (2 Bft)
21.11.2014 15:30 9,5 C 7,2 C 74 % 1020,3 hPa 0,0 l/m 0 min 0 min 55 W/m 10,5 km/h (2 Bft)
21.11.2014 15:32 9,4 C 7,2 C 75 % 1020,3 hPa 0,0 l/m 0 min 0 min 51 W/m 14,6 km/h (3 Bft)
21.11.2014 15:34 9,4 C 7,2 C 75 % 1020,4 hPa 0,0 l/m 0 min 0 min 47 W/m 12,6 km/h (3 Bft)
21.11.2014 15:36 9,4 C 6,7 C 75 % 1020,4 hPa 0,0 l/m 0 min 0 min 44 W/m 14,6 km/h (3 Bft)
21.11.2014 15:38 9,4 C 6,7 C 75 % 1020,4 hPa 0,0 l/m 0 min 0 min 39 W/m 12,6 km/h (3 Bft)
21.11.2014 15:40 9,4 C 6,7 C 75 % 1020,5 hPa 0,0 l/m 0 min 0 min 39 W/m 8,4 km/h (2 Bft)
21.11.2014 15:42 9,3 C 6,7 C 75 % 1020,5 hPa 0,0 l/m 0 min 0 min 35 W/m 10,5 km/h (2 Bft)
21.11.2014 15:44 9,3 C 6,7 C 75 % 1020,5 hPa 0,0 l/m 0 min 0 min 33 W/m 12,6 km/h (3 Bft)
21.11.2014 15:46 9,3 C 6,1 C 75 % 1020,4 hPa 0,0 l/m 0 min 0 min 33 W/m 12,6 km/h (3 Bft)
21.11.2014 15:48 9,3 C 6,1 C 75 % 1020,3 hPa 0,0 l/m 0 min 0 min 32 W/m 12,6 km/h (3 Bft)
21.11.2014 15:50 9,2 C 6,7 C 76 % 1020,4 hPa 0,0 l/m 0 min 0 min 30 W/m 12,6 km/h (3 Bft)
21.11.2014 15:52 9,2 C 6,7 C 76 % 1020,4 hPa 0,0 l/m 0 min 0 min 29 W/m 12,6 km/h (3 Bft)
21.11.2014 15:54 9,2 C 6,7 C 76 % 1020,4 hPa 0,0 l/m 0 min 0 min 28 W/m 14,6 km/h (3 Bft)
21.11.2014 15:56 9,1 C 6,7 C 76 % 1020,3 hPa 0,0 l/m 0 min 0 min 26 W/m 10,5 km/h (2 Bft)
21.11.2014 15:58 9,1 C 6,7 C 76 % 1020,3 hPa 0,0 l/m 0 min 0 min 26 W/m 8,4 km/h (2 Bft)
21.11.2014 16:00 9,1 C 6,1 C 76 % 1020,1 hPa 0,0 l/m 0 min 0 min 25 W/m 10,5 km/h (2 Bft)
21.11.2014 16:02 9,0 C 6,1 C 76 % 1020,1 hPa 0,0 l/m 0 min 0 min 25 W/m 12,6 km/h (3 Bft)
21.11.2014 16:04 9,0 C 6,1 C 76 % 1020,1 hPa 0,0 l/m 0 min 0 min 23 W/m 14,6 km/h (3 Bft)
21.11.2014 16:06 8,9 C 6,1 C 76 % 1020,1 hPa 0,0 l/m 0 min 0 min 22 W/m 14,6 km/h (3 Bft)
21.11.2014 16:08 8,9 C 6,1 C 76 % 1020,2 hPa 0,0 l/m 0 min 0 min 21 W/m 8,4 km/h (2 Bft)
21.11.2014 16:10 8,9 C 6,1 C 76 % 1020,2 hPa 0,0 l/m 0 min 0 min 21 W/m 10,5 km/h (2 Bft)
21.11.2014 16:12 8,9 C 6,1 C 76 % 1020,2 hPa 0,0 l/m 0 min 0 min 19 W/m 14,6 km/h (3 Bft)
21.11.2014 16:14 8,8 C 6,1 C 77 % 1020,1 hPa 0,0 l/m 0 min 0 min 17 W/m 12,6 km/h (3 Bft)
21.11.2014 16:16 8,8 C 5,6 C 77 % 1020,1 hPa 0,0 l/m 0 min 0 min 16 W/m 10,5 km/h (2 Bft)
21.11.2014 16:18 8,8 C 5,6 C 77 % 1020,1 hPa 0,0 l/m 0 min 0 min 16 W/m 10,5 km/h (2 Bft)
21.11.2014 16:20 8,7 C 5,6 C 77 % 1020,1 hPa 0,0 l/m 0 min 0 min 14 W/m 8,4 km/h (2 Bft)
21.11.2014 16:22 8,7 C 5,6 C 77 % 1020,1 hPa 0,0 l/m 2 min 0 min 13 W/m 14,6 km/h (3 Bft)
21.11.2014 16:24 8,7 C 5,6 C 77 % 1020,1 hPa 0,0 l/m 0 min 0 min 12 W/m 6,3 km/h (2 Bft)
21.11.2014 16:26 8,6 C 5,6 C 77 % 1020,0 hPa 0,0 l/m 0 min 0 min 10 W/m 12,6 km/h (3 Bft)
21.11.2014 16:28 8,6 C 5,6 C 77 % 1020,0 hPa 0,0 l/m 0 min 0 min 9 W/m 6,3 km/h (2 Bft)
21.11.2014 16:30 8,5 C 5,6 C 77 % 1020,1 hPa 0,0 l/m 0 min 0 min 8 W/m 12,6 km/h (3 Bft)
21.11.2014 16:32 8,4 C 5,6 C 78 % 1020,1 hPa 0,0 l/m 0 min 0 min 7 W/m 10,5 km/h (2 Bft)
21.11.2014 16:34 8,4 C 5,6 C 78 % 1020,0 hPa 0,0 l/m 0 min 0 min 6 W/m 10,5 km/h (2 Bft)
21.11.2014 16:36 8,4 C 5,6 C 78 % 1020,0 hPa 0,0 l/m 0 min 0 min 5 W/m 10,5 km/h (2 Bft)
21.11.2014 16:38 8,3 C 5,0 C 78 % 1020,0 hPa 0,0 l/m 0 min 0 min 5 W/m 12,6 km/h (3 Bft)
21.11.2014 16:40 8,3 C 5,6 C 78 % 1020,0 hPa 0,0 l/m 0 min 0 min 4 W/m 14,6 km/h (3 Bft)
21.11.2014 16:42 8,2 C 5,6 C 78 % 1019,9 hPa 0,0 l/m 0 min 0 min 0 W/m 14,6 km/h (3 Bft)
21.11.2014 16:44 8,2 C 5,6 C 78 % 1019,9 hPa 0,0 l/m 0 min 0 min 0 W/m 10,5 km/h (2 Bft)
21.11.2014 16:46 8,2 C 5,0 C 78 % 1019,9 hPa 0,0 l/m 0 min 0 min 0 W/m 12,6 km/h (3 Bft)
21.11.2014 16:48 8,1 C 5,0 C 78 % 1019,8 hPa 0,0 l/m 0 min 0 min 0 W/m 10,5 km/h (2 Bft)
21.11.2014 16:50 8,1 C 5,0 C 78 % 1019,7 hPa 0,0 l/m 0 min 0 min 0 W/m 12,6 km/h (3 Bft)
21.11.2014 16:52 8,0 C 5,0 C 79 % 1019,7 hPa 0,0 l/m 0 min 0 min 0 W/m 12,6 km/h (3 Bft)
21.11.2014 16:54 8,0 C 5,0 C 79 % 1019,7 hPa 0,0 l/m 0 min 0 min 0 W/m 10,5 km/h (2 Bft)
21.11.2014 16:56 7,9 C 5,0 C 79 % 1019,8 hPa 0,0 l/m 0 min 0 min 0 W/m 10,5 km/h (2 Bft)
21.11.2014 16:58 7,9 C 5,0 C 79 % 1019,8 hPa 0,0 l/m 0 min 0 min 0 W/m 10,5 km/h (2 Bft)
21.11.2014 17:00 7,8 C 5,0 C 79 % 1019,8 hPa 0,0 l/m 0 min 0 min 0 W/m 14,6 km/h (3 Bft)
21.11.2014 17:02 7,8 C 5,0 C 79 % 1019,8 hPa 0,0 l/m 0 min 0 min 0 W/m 12,6 km/h (3 Bft)
21.11.2014 17:04 7,8 C 5,0 C 79 % 1019,8 hPa 0,0 l/m 0 min 0 min 0 W/m 10,5 km/h (2 Bft)
21.11.2014 17:06 7,7 C 4,4 C 80 % 1019,8 hPa 0,0 l/m 0 min 0 min 0 W/m 12,6 km/h (3 Bft)
21.11.2014 17:08 7,7 C 5,0 C 80 % 1019,8 hPa 0,0 l/m 0 min 0 min 0 W/m 10,5 km/h (2 Bft)
21.11.2014 17:10 7,7 C 5,0 C 80 % 1019,8 hPa 0,0 l/m 0 min 0 min 0 W/m 12,6 km/h (3 Bft)
21.11.2014 17:12 7,6 C 5,0 C 80 % 1019,9 hPa 0,0 l/m 0 min 0 min 0 W/m 10,5 km/h (2 Bft)
21.11.2014 17:14 7,6 C 5,0 C 80 % 1020,0 hPa 0,0 l/m 0 min 0 min 0 W/m 10,5 km/h (2 Bft)
21.11.2014 17:16 7,6 C 5,0 C 80 % 1020,0 hPa 0,0 l/m 0 min 0 min 0 W/m 12,6 km/h (3 Bft)
21.11.2014 17:18 7,5 C 4,4 C 80 % 1019,9 hPa 0,0 l/m 0 min 0 min 0 W/m 10,5 km/h (2 Bft)
21.11.2014 17:20 7,4 C 4,4 C 80 % 1019,8 hPa 0,0 l/m 0 min 0 min 0 W/m 12,6 km/h (3 Bft)
21.11.2014 17:22 7,4 C 4,4 C 80 % 1019,9 hPa 0,0 l/m 0 min 0 min 0 W/m 14,6 km/h (3 Bft)
21.11.2014 17:24 7,4 C 5,0 C 81 % 1019,9 hPa 0,0 l/m 0 min 0 min 0 W/m 10,5 km/h (2 Bft)
21.11.2014 17:26 7,3 C 5,0 C 81 % 1019,9 hPa 0,0 l/m 0 min 0 min 0 W/m 8,4 km/h (2 Bft)
21.11.2014 17:28 7,3 C 5,0 C 81 % 1019,8 hPa 0,0 l/m 0 min 0 min 0 W/m 8,4 km/h (2 Bft)
21.11.2014 17:30 7,3 C 5,0 C 81 % 1019,8 hPa 0,0 l/m 0 min 0 min 0 W/m 16,7 km/h (3 Bft)
21.11.2014 17:32 7,3 C 5,0 C 81 % 1019,9 hPa 0,0 l/m 0 min 0 min 0 W/m 14,6 km/h (3 Bft)
21.11.2014 17:34 7,3 C 5,0 C 81 % 1019,8 hPa 0,0 l/m 0 min 0 min 0 W/m 14,6 km/h (3 Bft)
21.11.2014 17:36 7,2 C 5,0 C 81 % 1019,9 hPa 0,0 l/m 0 min 0 min 0 W/m 12,6 km/h (3 Bft)
21.11.2014 17:38 7,2 C 5,0 C 81 % 1019,8 hPa 0,0 l/m 0 min 0 min 0 W/m 10,5 km/h (2 Bft)
21.11.2014 17:40 7,2 C 4,4 C 81 % 1020,0 hPa 0,0 l/m 0 min 0 min 0 W/m 14,6 km/h (3 Bft)
21.11.2014 17:42 7,2 C 4,4 C 82 % 1019,9 hPa 0,0 l/m 0 min 0 min 0 W/m 10,5 km/h (2 Bft)
21.11.2014 17:44 7,2 C 4,4 C 82 % 1019,9 hPa 0,0 l/m 0 min 0 min 0 W/m 10,5 km/h (2 Bft)
21.11.2014 17:46 7,1 C 4,4 C 81 % 1019,9 hPa 0,0 l/m 0 min 0 min 0 W/m 14,6 km/h (3 Bft)
21.11.2014 17:48 7,1 C 4,4 C 82 % 1019,9 hPa 0,0 l/m 0 min 0 min 0 W/m 12,6 km/h (3 Bft)
21.11.2014 17:50 7,1 C 5,0 C 82 % 1019,8 hPa 0,0 l/m 0 min 0 min 0 W/m 14,6 km/h (3 Bft)
21.11.2014 17:52 7,1 C 5,0 C 82 % 1019,8 hPa 0,0 l/m 0 min 0 min 0 W/m 14,6 km/h (3 Bft)
21.11.2014 17:54 7,1 C 5,0 C 82 % 1019,8 hPa 0,0 l/m 0 min 0 min 0 W/m 12,6 km/h (3 Bft)
21.11.2014 17:56 7,0 C 4,4 C 82 % 1019,8 hPa 0,0 l/m 0 min 0 min 0 W/m 10,5 km/h (2 Bft)
21.11.2014 17:58 7,0 C 4,4 C 82 % 1019,7 hPa 0,0 l/m 0 min 0 min 0 W/m 12,6 km/h (3 Bft)
21.11.2014 18:00 6,9 C 4,4 C 82 % 1019,7 hPa 0,0 l/m 0 min 0 min 0 W/m 14,6 km/h (3 Bft)
21.11.2014 18:02 6,9 C 4,4 C 82 % 1019,8 hPa 0,0 l/m 0 min 0 min 0 W/m 10,5 km/h (2 Bft)
21.11.2014 18:05 6,9 C 4,4 C 82 % 1019,7 hPa 0,0 l/m 0 min 0 min 0 W/m 14,6 km/h (3 Bft)
21.11.2014 18:06 6,9 C 4,4 C 82 % 1019,7 hPa 0,0 l/m 0 min 0 min 0 W/m 14,6 km/h (3 Bft)
21.11.2014 18:08 6,8 C 4,4 C 82 % 1019,7 hPa 0,0 l/m 0 min 0 min 0 W/m 12,6 km/h (3 Bft)
21.11.2014 18:10 6,8 C 4,4 C 83 % 1019,7 hPa 0,0 l/m 0 min 0 min 0 W/m 14,6 km/h (3 Bft)
21.11.2014 18:12 6,8 C 4,4 C 83 % 1019,7 hPa 0,0 l/m 0 min 0 min 0 W/m 12,6 km/h (3 Bft)
21.11.2014 18:14 6,8 C 4,4 C 83 % 1019,7 hPa 0,0 l/m 0 min 0 min 0 W/m 14,6 km/h (3 Bft)
21.11.2014 18:16 6,8 C 4,4 C 83 % 1019,7 hPa 0,0 l/m 0 min 0 min 0 W/m 14,6 km/h (3 Bft)
21.11.2014 18:18 6,7 C 4,4 C 83 % 1019,6 hPa 0,0 l/m 0 min 0 min 0 W/m 12,6 km/h (3 Bft)
21.11.2014 18:20 6,7 C 4,4 C 83 % 1019,7 hPa 0,0 l/m 0 min 0 min 0 W/m 10,5 km/h (2 Bft)
21.11.2014 18:22 6,7 C 4,4 C 83 % 1019,8 hPa 0,0 l/m 0 min 0 min 0 W/m 10,5 km/h (2 Bft)
21.11.2014 18:24 6,7 C 4,4 C 83 % 1019,7 hPa 0,0 l/m 0 min 0 min 0 W/m 16,7 km/h (3 Bft)
21.11.2014 18:26 6,7 C 4,4 C 83 % 1019,7 hPa 0,0 l/m 0 min 0 min 0 W/m 14,6 km/h (3 Bft)
21.11.2014 18:28 6,7 C 5,0 C 84 % 1019,8 hPa 0,0 l/m 0 min 0 min 0 W/m 14,6 km/h (3 Bft)
21.11.2014 18:30 6,7 C 5,0 C 84 % 1019,7 hPa 0,0 l/m 0 min 0 min 0 W/m 16,7 km/h (3 Bft)
21.11.2014 18:32 6,7 C 4,4 C 84 % 1019,8 hPa 0,0 l/m 0 min 0 min 0 W/m 12,6 km/h (3 Bft)
21.11.2014 18:34 6,6 C 4,4 C 84 % 1019,8 hPa 0,0 l/m 0 min 0 min 0 W/m 12,6 km/h (3 Bft)
21.11.2014 18:36 6,6 C 4,4 C 84 % 1019,8 hPa 0,0 l/m 0 min 0 min 0 W/m 14,6 km/h (3 Bft)
21.11.2014 18:38 6,6 C 4,4 C 84 % 1019,8 hPa 0,0 l/m 0 min 0 min 0 W/m 16,7 km/h (3 Bft)
21.11.2014 18:40 6,6 C 4,4 C 84 % 1019,7 hPa 0,0 l/m 0 min 0 min 0 W/m 14,6 km/h (3 Bft)
21.11.2014 18:42 6,6 C 4,4 C 84 % 1019,7 hPa 0,0 l/m 0 min 0 min 0 W/m 12,6 km/h (3 Bft)
21.11.2014 18:44 6,6 C 4,4 C 84 % 1019,8 hPa 0,0 l/m 0 min 0 min 0 W/m 14,6 km/h (3 Bft)
21.11.2014 18:46 6,6 C 4,4 C 84 % 1019,7 hPa 0,0 l/m 0 min 0 min 0 W/m 16,7 km/h (3 Bft)
21.11.2014 18:48 6,6 C 4,4 C 84 % 1019,8 hPa 0,0 l/m 0 min 0 min 0 W/m 14,6 km/h (3 Bft)
21.11.2014 18:50 6,6 C 4,4 C 85 % 1019,7 hPa 0,0 l/m 0 min 0 min 0 W/m 10,5 km/h (2 Bft)
21.11.2014 18:52 6,5 C 4,4 C 85 % 1019,7 hPa 0,0 l/m 0 min 0 min 0 W/m 14,6 km/h (3 Bft)
21.11.2014 18:54 6,5 C 4,4 C 85 % 1019,7 hPa 0,0 l/m 0 min 0 min 0 W/m 10,5 km/h (2 Bft)
21.11.2014 18:56 6,5 C 4,4 C 85 % 1019,6 hPa 0,0 l/m 0 min 0 min 0 W/m 20,9 km/h (4 Bft)
21.11.2014 18:58 6,5 C 4,4 C 85 % 1019,7 hPa 0,0 l/m 0 min 0 min 0 W/m 14,6 km/h (3 Bft)
21.11.2014 19:00 6,5 C 4,4 C 85 % 1019,7 hPa 0,0 l/m 0 min 0 min 0 W/m 12,6 km/h (3 Bft)
21.11.2014 19:02 6,5 C 4,4 C 85 % 1019,7 hPa 0,0 l/m 0 min 0 min 0 W/m 12,6 km/h (3 Bft)
21.11.2014 19:04 6,4 C 4,4 C 85 % 1019,6 hPa 0,0 l/m 0 min 0 min 0 W/m 16,7 km/h (3 Bft)
21.11.2014 19:06 6,4 C 4,4 C 85 % 1019,6 hPa 0,0 l/m 0 min 0 min 0 W/m 8,4 km/h (2 Bft)
21.11.2014 19:08 6,4 C 4,4 C 85 % 1019,7 hPa 0,0 l/m 0 min 0 min 0 W/m 8,4 km/h (2 Bft)
21.11.2014 19:10 6,4 C 4,4 C 85 % 1019,8 hPa 0,0 l/m 0 min 0 min 0 W/m 8,4 km/h (2 Bft)
21.11.2014 19:12 6,4 C 4,4 C 85 % 1019,7 hPa 0,0 l/m 0 min 0 min 0 W/m 10,5 km/h (2 Bft)
21.11.2014 19:14 6,4 C 4,4 C 85 % 1019,8 hPa 0,0 l/m 0 min 0 min 0 W/m 8,4 km/h (2 Bft)
21.11.2014 19:16 6,4 C 4,4 C 85 % 1019,7 hPa 0,0 l/m 0 min 0 min 0 W/m 10,5 km/h (2 Bft)
21.11.2014 19:18 6,4 C 4,4 C 85 % 1019,7 hPa 0,0 l/m 0 min 0 min 0 W/m 12,6 km/h (3 Bft)
21.11.2014 19:20 6,4 C 4,4 C 85 % 1019,7 hPa 0,0 l/m 0 min 0 min 0 W/m 10,5 km/h (2 Bft)
21.11.2014 19:22 6,3 C 4,4 C 86 % 1019,7 hPa 0,0 l/m 0 min 0 min 0 W/m 10,5 km/h (2 Bft)
21.11.2014 19:24 6,3 C 4,4 C 86 % 1019,7 hPa 0,0 l/m 0 min 0 min 0 W/m 10,5 km/h (2 Bft)
21.11.2014 19:26 6,3 C 4,4 C 86 % 1019,7 hPa 0,0 l/m 0 min 0 min 0 W/m 10,5 km/h (2 Bft)
21.11.2014 19:28 6,3 C 4,4 C 86 % 1019,6 hPa 0,0 l/m 0 min 0 min 0 W/m 10,5 km/h (2 Bft)
21.11.2014 19:30 6,2 C 4,4 C 86 % 1019,6 hPa 0,0 l/m 0 min 0 min 0 W/m 14,6 km/h (3 Bft)
21.11.2014 19:32 6,2 C 4,4 C 86 % 1019,6 hPa 0,0 l/m 0 min 0 min 0 W/m 14,6 km/h (3 Bft)
21.11.2014 19:34 6,2 C 3,9 C 86 % 1019,6 hPa 0,0 l/m 0 min 0 min 0 W/m 12,6 km/h (3 Bft)
21.11.2014 19:36 6,2 C 4,4 C 86 % 1019,5 hPa 0,0 l/m 0 min 0 min 0 W/m 16,7 km/h (3 Bft)
21.11.2014 19:38 6,2 C 4,4 C 86 % 1019,5 hPa 0,0 l/m 0 min 0 min 0 W/m 14,6 km/h (3 Bft)
21.11.2014 19:40 6,1 C 4,4 C 86 % 1019,5 hPa 0,0 l/m 0 min 0 min 0 W/m 16,7 km/h (3 Bft)
21.11.2014 19:42 6,1 C 4,4 C 86 % 1019,5 hPa 0,0 l/m 0 min 0 min 0 W/m 12,6 km/h (3 Bft)
21.11.2014 19:44 6,1 C 4,4 C 86 % 1019,5 hPa 0,0 l/m 0 min 0 min 0 W/m 20,9 km/h (4 Bft)
21.11.2014 19:46 6,1 C 4,4 C 87 % 1019,5 hPa 0,0 l/m 0 min 0 min 0 W/m 18,8 km/h (3 Bft)
21.11.2014 19:48 6,1 C 4,4 C 87 % 1019,5 hPa 0,0 l/m 0 min 0 min 0 W/m 16,7 km/h (3 Bft)
21.11.2014 19:50 6,1 C 4,4 C 87 % 1019,5 hPa 0,0 l/m 0 min 0 min 0 W/m 16,7 km/h (3 Bft)
21.11.2014 19:52 6,1 C 4,4 C 87 % 1019,4 hPa 0,0 l/m 0 min 0 min 0 W/m 16,7 km/h (3 Bft)
21.11.2014 19:54 6,1 C 4,4 C 87 % 1019,4 hPa 0,0 l/m 0 min 0 min 0 W/m 16,7 km/h (3 Bft)
21.11.2014 19:56 6,1 C 4,4 C 87 % 1019,4 hPa 0,0 l/m 0 min 0 min 0 W/m 20,9 km/h (4 Bft)
21.11.2014 19:58 6,1 C 4,4 C 87 % 1019,5 hPa 0,0 l/m 0 min 0 min 0 W/m 16,7 km/h (3 Bft)
21.11.2014 20:00 6,1 C 4,4 C 87 % 1019,5 hPa 0,0 l/m 0 min 0 min 0 W/m 18,8 km/h (3 Bft)
21.11.2014 20:02 6,1 C 4,4 C 87 % 1019,5 hPa 0,0 l/m 0 min 0 min 0 W/m 16,7 km/h (3 Bft)
21.11.2014 20:04 6,1 C 4,4 C 87 % 1019,5 hPa 0,0 l/m 0 min 0 min 0 W/m 18,8 km/h (3 Bft)
21.11.2014 20:06 6,1 C 4,4 C 87 % 1019,4 hPa 0,0 l/m 0 min 0 min 0 W/m 18,8 km/h (3 Bft)
21.11.2014 20:08 6,1 C 4,4 C 87 % 1019,4 hPa 0,0 l/m 0 min 0 min 0 W/m 18,8 km/h (3 Bft)
21.11.2014 20:10 6,1 C 4,4 C 87 % 1019,4 hPa 0,0 l/m 0 min 0 min 0 W/m 23,0 km/h (4 Bft)
21.11.2014 20:12 6,1 C 4,4 C 87 % 1019,5 hPa 0,0 l/m 0 min 0 min 0 W/m 20,9 km/h (4 Bft)
21.11.2014 20:14 6,1 C 4,4 C 87 % 1019,5 hPa 0,0 l/m 0 min 0 min 0 W/m 20,9 km/h (4 Bft)
21.11.2014 20:16 6,1 C 4,4 C 87 % 1019,5 hPa 0,0 l/m 0 min 0 min 0 W/m 18,8 km/h (3 Bft)
21.11.2014 20:18 6,1 C 4,4 C 87 % 1019,5 hPa 0,0 l/m 0 min 0 min 0 W/m 16,7 km/h (3 Bft)
21.11.2014 20:20 6,1 C 4,4 C 87 % 1019,5 hPa 0,0 l/m 0 min 0 min 0 W/m 18,8 km/h (3 Bft)
21.11.2014 20:22 6,1 C 4,4 C 87 % 1019,5 hPa 0,0 l/m 0 min 0 min 0 W/m 14,6 km/h (3 Bft)
21.11.2014 20:24 6,1 C 4,4 C 87 % 1019,5 hPa 0,0 l/m 0 min 0 min 0 W/m 14,6 km/h (3 Bft)
21.11.2014 20:26 6,1 C 4,4 C 87 % 1019,5 hPa 0,0 l/m 0 min 0 min 0 W/m 18,8 km/h (3 Bft)
21.11.2014 20:28 6,0 C 4,4 C 87 % 1019,5 hPa 0,0 l/m 0 min 0 min 0 W/m 18,8 km/h (3 Bft)
21.11.2014 20:30 6,0 C 4,4 C 87 % 1019,6 hPa 0,0 l/m 0 min 0 min 0 W/m 16,7 km/h (3 Bft)
21.11.2014 20:32 6,0 C 4,4 C 87 % 1019,6 hPa 0,0 l/m 0 min 0 min 0 W/m 18,8 km/h (3 Bft)
21.11.2014 20:34 6,0 C 4,4 C 87 % 1019,6 hPa 0,0 l/m 0 min 0 min 0 W/m 12,6 km/h (3 Bft)
21.11.2014 20:36 6,0 C 4,4 C 87 % 1019,6 hPa 0,0 l/m 0 min 0 min 0 W/m 10,5 km/h (2 Bft)
21.11.2014 20:38 6,0 C 4,4 C 87 % 1019,5 hPa 0,0 l/m 0 min 0 min 0 W/m 12,6 km/h (3 Bft)
21.11.2014 20:40 6,0 C 4,4 C 87 % 1019,6 hPa 0,0 l/m 0 min 0 min 0 W/m 10,5 km/h (2 Bft)
21.11.2014 20:42 5,9 C 4,4 C 88 % 1019,6 hPa 0,0 l/m 0 min 0 min 0 W/m 16,7 km/h (3 Bft)
21.11.2014 20:44 5,9 C 4,4 C 88 % 1019,6 hPa 0,0 l/m 0 min 0 min 0 W/m 16,7 km/h (3 Bft)
21.11.2014 20:46 5,9 C 4,4 C 88 % 1019,6 hPa 0,0 l/m 0 min 0 min 0 W/m 12,6 km/h (3 Bft)
21.11.2014 20:48 5,9 C 4,4 C 88 % 1019,6 hPa 0,0 l/m 0 min 0 min 0 W/m 14,6 km/h (3 Bft)
21.11.2014 20:50 5,9 C 4,4 C 88 % 1019,7 hPa 0,0 l/m 0 min 0 min 0 W/m 14,6 km/h (3 Bft)
21.11.2014 20:52 5,9 C 4,4 C 88 % 1019,7 hPa 0,0 l/m 0 min 0 min 0 W/m 12,6 km/h (3 Bft)
21.11.2014 20:54 5,9 C 4,4 C 88 % 1019,6 hPa 0,0 l/m 0 min 0 min 0 W/m 14,6 km/h (3 Bft)
21.11.2014 20:56 5,9 C 4,4 C 88 % 1019,7 hPa 0,0 l/m 0 min 0 min 0 W/m 18,8 km/h (3 Bft)
21.11.2014 20:58 5,9 C 4,4 C 88 % 1019,7 hPa 0,0 l/m 0 min 0 min 0 W/m 14,6 km/h (3 Bft)
21.11.2014 21:00 5,9 C 4,4 C 88 % 1019,8 hPa 0,0 l/m 0 min 0 min 0 W/m 16,7 km/h (3 Bft)
21.11.2014 21:02 5,8 C 4,4 C 88 % 1019,8 hPa 0,0 l/m 0 min 0 min 0 W/m 10,5 km/h (2 Bft)
21.11.2014 21:04 5,8 C 4,4 C 88 % 1019,8 hPa 0,0 l/m 0 min 0 min 0 W/m 10,5 km/h (2 Bft)
21.11.2014 21:06 5,8 C 4,4 C 88 % 1019,7 hPa 0,0 l/m 0 min 0 min 0 W/m 10,5 km/h (2 Bft)
21.11.2014 21:08 5,8 C 4,4 C 88 % 1019,8 hPa 0,0 l/m 0 min 0 min 0 W/m 16,7 km/h (3 Bft)
21.11.2014 21:10 5,8 C 4,4 C 88 % 1019,7 hPa 0,0 l/m 0 min 0 min 0 W/m 12,6 km/h (3 Bft)
21.11.2014 21:12 5,8 C 4,4 C 88 % 1019,7 hPa 0,0 l/m 0 min 0 min 0 W/m 14,6 km/h (3 Bft)
21.11.2014 21:14 5,8 C 4,4 C 88 % 1019,8 hPa 0,0 l/m 0 min 0 min 0 W/m 14,6 km/h (3 Bft)
21.11.2014 21:16 5,8 C 4,4 C 88 % 1019,7 hPa 0,0 l/m 0 min 0 min 0 W/m 10,5 km/h (2 Bft)
21.11.2014 21:18 5,8 C 4,4 C 88 % 1019,8 hPa 0,0 l/m 0 min 0 min 0 W/m 16,7 km/h (3 Bft)
21.11.2014 21:20 5,8 C 4,4 C 88 % 1019,7 hPa 0,0 l/m 0 min 0 min 0 W/m 18,8 km/h (3 Bft)
21.11.2014 21:22 5,8 C 4,4 C 88 % 1019,6 hPa 0,0 l/m 0 min 0 min 0 W/m 16,7 km/h (3 Bft)
21.11.2014 21:24 5,8 C 4,4 C 88 % 1019,5 hPa 0,0 l/m 0 min 0 min 0 W/m 14,6 km/h (3 Bft)
21.11.2014 21:26 5,8 C 4,4 C 88 % 1019,6 hPa 0,0 l/m 0 min 0 min 0 W/m 23,0 km/h (4 Bft)
21.11.2014 21:28 5,8 C 4,4 C 88 % 1019,6 hPa 0,0 l/m 0 min 0 min 0 W/m 18,8 km/h (3 Bft)
21.11.2014 21:30 5,8 C 4,4 C 88 % 1019,6 hPa 0,0 l/m 0 min 0 min 0 W/m 23,0 km/h (4 Bft)
21.11.2014 21:32 5,8 C 4,4 C 88 % 1019,6 hPa 0,0 l/m 0 min 0 min 0 W/m 16,7 km/h (3 Bft)
21.11.2014 21:34 5,8 C 4,4 C 89 % 1019,5 hPa 0,0 l/m 0 min 0 min 0 W/m 16,7 km/h (3 Bft)
21.11.2014 21:36 5,8 C 4,4 C 89 % 1019,5 hPa 0,0 l/m 0 min 0 min 0 W/m 18,8 km/h (3 Bft)
21.11.2014 21:38 5,8 C 4,4 C 88 % 1019,5 hPa 0,0 l/m 0 min 0 min 0 W/m 18,8 km/h (3 Bft)
21.11.2014 21:40 5,8 C 4,4 C 88 % 1019,5 hPa 0,0 l/m 0 min 0 min 0 W/m 23,0 km/h (4 Bft)
21.11.2014 21:42 5,8 C 4,4 C 88 % 1019,5 hPa 0,0 l/m 0 min 0 min 0 W/m 18,8 km/h (3 Bft)
21.11.2014 21:44 5,8 C 4,4 C 88 % 1019,4 hPa 0,0 l/m 0 min 0 min 0 W/m 20,9 km/h (4 Bft)
21.11.2014 21:46 5,8 C 4,4 C 89 % 1019,4 hPa 0,0 l/m 0 min 0 min 0 W/m 29,3 km/h (5 Bft)
21.11.2014 21:48 5,9 C 4,4 C 89 % 1019,4 hPa 0,0 l/m 0 min 0 min 0 W/m 18,8 km/h (3 Bft)
21.11.2014 21:50 5,9 C 4,4 C 88 % 1019,4 hPa 0,0 l/m 0 min 0 min 0 W/m 25,1 km/h (4 Bft)
21.11.2014 21:52 5,9 C 4,4 C 88 % 1019,4 hPa 0,0 l/m 0 min 0 min 0 W/m 20,9 km/h (4 Bft)
21.11.2014 21:54 5,9 C 4,4 C 88 % 1019,4 hPa 0,0 l/m 0 min 0 min 0 W/m 16,7 km/h (3 Bft)
21.11.2014 21:56 5,9 C 4,4 C 88 % 1019,4 hPa 0,0 l/m 0 min 0 min 0 W/m 20,9 km/h (4 Bft)
21.11.2014 21:58 5,9 C 4,4 C 88 % 1019,4 hPa 0,0 l/m 0 min 0 min 0 W/m 14,6 km/h (3 Bft)
21.11.2014 22:00 5,9 C 4,4 C 88 % 1019,4 hPa 0,0 l/m 0 min 0 min 0 W/m 20,9 km/h (4 Bft)
21.11.2014 22:02 5,9 C 4,4 C 88 % 1019,3 hPa 0,0 l/m 0 min 0 min 0 W/m 18,8 km/h (3 Bft)
21.11.2014 22:04 5,9 C 4,4 C 88 % 1019,4 hPa 0,0 l/m 0 min 0 min 0 W/m 16,7 km/h (3 Bft)
21.11.2014 22:06 5,9 C 4,4 C 88 % 1019,3 hPa 0,0 l/m 0 min 0 min 0 W/m 20,9 km/h (4 Bft)
21.11.2014 22:08 5,9 C 4,4 C 88 % 1019,4 hPa 0,0 l/m 0 min 0 min 0 W/m 12,6 km/h (3 Bft)
21.11.2014 22:10 5,9 C 4,4 C 88 % 1019,4 hPa 0,0 l/m 0 min 0 min 0 W/m 18,8 km/h (3 Bft)
21.11.2014 22:12 5,9 C 4,4 C 88 % 1019,4 hPa 0,0 l/m 0 min 0 min 0 W/m 20,9 km/h (4 Bft)
21.11.2014 22:14 5,9 C 4,4 C 88 % 1019,4 hPa 0,0 l/m 0 min 0 min 0 W/m 18,8 km/h (3 Bft)
21.11.2014 22:16 5,8 C 4,4 C 88 % 1019,4 hPa 0,0 l/m 0 min 0 min 0 W/m 12,6 km/h (3 Bft)
21.11.2014 22:18 5,8 C 4,4 C 88 % 1019,4 hPa 0,0 l/m 0 min 0 min 0 W/m 18,8 km/h (3 Bft)
21.11.2014 22:20 5,8 C 3,9 C 88 % 1019,4 hPa 0,0 l/m 0 min 0 min 0 W/m 20,9 km/h (4 Bft)
21.11.2014 22:22 5,8 C 3,9 C 88 % 1019,4 hPa 0,0 l/m 0 min 0 min 0 W/m 20,9 km/h (4 Bft)
21.11.2014 22:24 5,8 C 4,4 C 88 % 1019,3 hPa 0,0 l/m 0 min 0 min 0 W/m 20,9 km/h (4 Bft)
21.11.2014 22:26 5,8 C 3,9 C 88 % 1019,3 hPa 0,0 l/m 0 min 0 min 0 W/m 12,6 km/h (3 Bft)
21.11.2014 22:28 5,8 C 3,9 C 88 % 1019,3 hPa 0,0 l/m 0 min 0 min 0 W/m 14,6 km/h (3 Bft)
21.11.2014 22:30 5,7 C 3,9 C 88 % 1019,3 hPa 0,0 l/m 0 min 0 min 0 W/m 16,7 km/h (3 Bft)
21.11.2014 22:32 5,7 C 3,9 C 88 % 1019,3 hPa 0,0 l/m 0 min 0 min 0 W/m 14,6 km/h (3 Bft)
21.11.2014 22:34 5,7 C 3,9 C 88 % 1019,3 hPa 0,0 l/m 0 min 0 min 0 W/m 12,6 km/h (3 Bft)
21.11.2014 22:36 5,7 C 3,9 C 88 % 1019,3 hPa 0,0 l/m 0 min 0 min 0 W/m 14,6 km/h (3 Bft)
21.11.2014 22:38 5,7 C 3,9 C 88 % 1019,2 hPa 0,0 l/m 0 min 0 min 0 W/m 16,7 km/h (3 Bft)
21.11.2014 22:40 5,7 C 3,9 C 88 % 1019,3 hPa 0,0 l/m 0 min 0 min 0 W/m 18,8 km/h (3 Bft)
21.11.2014 22:42 5,6 C 3,9 C 88 % 1019,2 hPa 0,0 l/m 0 min 0 min 0 W/m 20,9 km/h (4 Bft)
21.11.2014 22:44 5,6 C 3,9 C 88 % 1019,2 hPa 0,0 l/m 0 min 0 min 0 W/m 14,6 km/h (3 Bft)
21.11.2014 22:46 5,6 C 3,9 C 88 % 1019,2 hPa 0,0 l/m 0 min 0 min 0 W/m 16,7 km/h (3 Bft)
21.11.2014 22:48 5,6 C 3,9 C 88 % 1019,2 hPa 0,0 l/m 0 min 0 min 0 W/m 10,5 km/h (2 Bft)
21.11.2014 22:50 5,6 C 3,9 C 88 % 1019,2 hPa 0,0 l/m 0 min 0 min 0 W/m 16,7 km/h (3 Bft)
21.11.2014 22:52 5,6 C 3,9 C 88 % 1019,2 hPa 0,0 l/m 0 min 0 min 0 W/m 16,7 km/h (3 Bft)
21.11.2014 22:54 5,5 C 3,9 C 88 % 1019,1 hPa 0,0 l/m 0 min 0 min 0 W/m 14,6 km/h (3 Bft)
21.11.2014 22:56 5,5 C 3,9 C 88 % 1019,2 hPa 0,0 l/m 0 min 0 min 0 W/m 14,6 km/h (3 Bft)
21.11.2014 22:58 5,5 C 3,9 C 89 % 1019,2 hPa 0,0 l/m 0 min 0 min 0 W/m 14,6 km/h (3 Bft)
21.11.2014 23:00 5,4 C 3,9 C 89 % 1019,2 hPa 0,0 l/m 0 min 0 min 0 W/m 14,6 km/h (3 Bft)
21.11.2014 23:02 5,4 C 3,9 C 89 % 1019,2 hPa 0,0 l/m 0 min 0 min 0 W/m 18,8 km/h (3 Bft)
21.11.2014 23:04 5,4 C 3,9 C 89 % 1019,2 hPa 0,0 l/m 0 min 0 min 0 W/m 16,7 km/h (3 Bft)
21.11.2014 23:06 5,4 C 3,9 C 89 % 1019,2 hPa 0,0 l/m 0 min 0 min 0 W/m 10,5 km/h (2 Bft)
21.11.2014 23:08 5,4 C 3,9 C 89 % 1019,2 hPa 0,0 l/m 0 min 0 min 0 W/m 16,7 km/h (3 Bft)
21.11.2014 23:10 5,4 C 3,9 C 89 % 1019,2 hPa 0,0 l/m 0 min 0 min 0 W/m 16,7 km/h (3 Bft)
21.11.2014 23:12 5,4 C 3,9 C 89 % 1019,1 hPa 0,0 l/m 0 min 0 min 0 W/m 12,6 km/h (3 Bft)
21.11.2014 23:14 5,4 C 3,9 C 89 % 1019,1 hPa 0,0 l/m 0 min 0 min 0 W/m 18,8 km/h (3 Bft)
21.11.2014 23:16 5,3 C 3,9 C 89 % 1019,1 hPa 0,0 l/m 0 min 0 min 0 W/m 23,0 km/h (4 Bft)
21.11.2014 23:18 5,3 C 3,9 C 89 % 1019,0 hPa 0,0 l/m 0 min 0 min 0 W/m 18,8 km/h (3 Bft)
21.11.2014 23:20 5,3 C 3,9 C 89 % 1019,0 hPa 0,0 l/m 0 min 0 min 0 W/m 20,9 km/h (4 Bft)
21.11.2014 23:22 5,3 C 3,9 C 89 % 1019,1 hPa 0,0 l/m 0 min 0 min 0 W/m 14,6 km/h (3 Bft)
21.11.2014 23:24 5,3 C 3,9 C 89 % 1019,2 hPa 0,0 l/m 0 min 0 min 0 W/m 18,8 km/h (3 Bft)
21.11.2014 23:26 5,3 C 3,9 C 89 % 1019,1 hPa 0,0 l/m 0 min 0 min 0 W/m 8,4 km/h (2 Bft)
21.11.2014 23:28 5,3 C 3,9 C 89 % 1019,2 hPa 0,0 l/m 0 min 0 min 0 W/m 14,6 km/h (3 Bft)
21.11.2014 23:30 5,3 C 3,9 C 89 % 1019,2 hPa 0,0 l/m 0 min 0 min 0 W/m 14,6 km/h (3 Bft)
21.11.2014 23:32 5,3 C 3,9 C 89 % 1019,3 hPa 0,0 l/m 0 min 0 min 0 W/m 12,6 km/h (3 Bft)
21.11.2014 23:34 5,3 C 3,9 C 89 % 1019,2 hPa 0,0 l/m 0 min 0 min 0 W/m 14,6 km/h (3 Bft)
21.11.2014 23:36 5,3 C 3,9 C 89 % 1019,2 hPa 0,0 l/m 0 min 0 min 0 W/m 16,7 km/h (3 Bft)
21.11.2014 23:38 5,3 C 3,9 C 89 % 1019,2 hPa 0,0 l/m 0 min 0 min 0 W/m 8,4 km/h (2 Bft)
21.11.2014 23:40 5,3 C 3,9 C 89 % 1019,2 hPa 0,0 l/m 0 min 0 min 0 W/m 12,6 km/h (3 Bft)
21.11.2014 23:42 5,3 C 3,9 C 89 % 1019,2 hPa 0,0 l/m 0 min 0 min 0 W/m 16,7 km/h (3 Bft)
21.11.2014 23:44 5,3 C 3,9 C 89 % 1019,2 hPa 0,0 l/m 0 min 0 min 0 W/m 14,6 km/h (3 Bft)
21.11.2014 23:46 5,3 C 3,9 C 90 % 1019,2 hPa 0,0 l/m 0 min 0 min 0 W/m 12,6 km/h (3 Bft)
21.11.2014 23:48 5,3 C 3,9 C 90 % 1019,3 hPa 0,0 l/m 0 min 0 min 0 W/m 12,6 km/h (3 Bft)
21.11.2014 23:50 5,3 C 3,9 C 90 % 1019,3 hPa 0,0 l/m 0 min 0 min 0 W/m 14,6 km/h (3 Bft)
21.11.2014 23:52 5,3 C 3,9 C 90 % 1019,2 hPa 0,0 l/m 0 min 0 min 0 W/m 14,6 km/h (3 Bft)
21.11.2014 23:54 5,2 C 3,9 C 90 % 1019,3 hPa 0,0 l/m 0 min 0 min 0 W/m 14,6 km/h (3 Bft)
21.11.2014 23:56 5,2 C 3,9 C 90 % 1019,3 hPa 0,0 l/m 0 min 0 min 0 W/m 12,6 km/h (3 Bft)
21.11.2014 23:58 5,2 C 3,9 C 90 % 1019,2 hPa 0,0 l/m 0 min 0 min 0 W/m 14,6 km/h (3 Bft)
_ Min-Zeit 07:02 07:46 14:22 23:18 - - - - 00:30
Minimum _ 1,5 C 0,0 C 72 % 1019,0 hPa - - - - 4,2 km/h (1 Bft)
_ Max-Zeit 13:48 12:52 09:54 00:00 02:40 09:04 00:00 12:00 13:04
Maximum _ 10,5 C 7,8 C 98 % 1025,6 hPa 0,2 l/m 2 min 0 min 306 W/m 29,3 km/h
O-SO (5 Bft)
Durchschnitt _ 5,2 C 3,6 C 89 % 1021,9 hPa #0,2 l/m #6:01 h #0 min. 157 W/m 13,6 km/h (3 Bft)
© 2015 W. Hausmann